<?xml version="1.0" encoding="UTF-8" standalone="no" ?>
<gpx xmlns="http://www.topografix.com/GPX/1/1" xmlns:xsi="http://www.w3.org/2001/XMLSchema-instance" xsi:schemaLocation="http://www.topografix.com/GPX/1/1 http://www.topografix.com/GPX/1/1/gpx.xsd" version="1.1" creator="VisuGPX - https://www.visugpx.com">
  <metadata>
    <name>Forêt de Saint-Germain - Saint Joseph</name>
    <desc><![CDATA[Parcours de 9km
]]></desc>
  </metadata>
  <trk>
    <name><![CDATA[Saint-Joseph_R3]]></name>
    <trkseg>
      <trkpt lat="48.92893" lon="2.08007">
        <ele>80.75</ele>
        <time>2021-01-26T08:23:22Z</time>
      </trkpt>
      <trkpt lat="48.92879" lon="2.07985">
        <ele>80.33</ele>
        <time>2021-01-26T08:23:33Z</time>
      </trkpt>
      <trkpt lat="48.92875" lon="2.07976">
        <ele>81.48</ele>
        <time>2021-01-26T08:23:37Z</time>
      </trkpt>
      <trkpt lat="48.92872" lon="2.0797">
        <ele>80.91</ele>
        <time>2021-01-26T08:23:42Z</time>
      </trkpt>
      <trkpt lat="48.92863" lon="2.07958">
        <ele>80.87</ele>
        <time>2021-01-26T08:23:51Z</time>
      </trkpt>
      <trkpt lat="48.92858" lon="2.07955">
        <ele>80.48</ele>
        <time>2021-01-26T08:23:56Z</time>
      </trkpt>
      <trkpt lat="48.92856" lon="2.07954">
        <ele>80.64</ele>
        <time>2021-01-26T08:23:58Z</time>
      </trkpt>
      <trkpt lat="48.92837" lon="2.07933">
        <ele>80.56</ele>
        <time>2021-01-26T08:24:13Z</time>
      </trkpt>
      <trkpt lat="48.92833" lon="2.07927">
        <ele>80.65</ele>
        <time>2021-01-26T08:24:17Z</time>
      </trkpt>
      <trkpt lat="48.92819" lon="2.07907">
        <ele>81.12</ele>
        <time>2021-01-26T08:24:30Z</time>
      </trkpt>
      <trkpt lat="48.92809" lon="2.07891">
        <ele>80.88</ele>
        <time>2021-01-26T08:24:41Z</time>
      </trkpt>
      <trkpt lat="48.92796" lon="2.07871">
        <ele>80.38</ele>
        <time>2021-01-26T08:24:56Z</time>
      </trkpt>
      <trkpt lat="48.92785" lon="2.07855">
        <ele>80.85</ele>
        <time>2021-01-26T08:25:09Z</time>
      </trkpt>
      <trkpt lat="48.9277" lon="2.0784">
        <ele>80.69</ele>
        <time>2021-01-26T08:25:23Z</time>
      </trkpt>
      <trkpt lat="48.92763" lon="2.07828">
        <ele>80.48</ele>
        <time>2021-01-26T08:25:32Z</time>
      </trkpt>
      <trkpt lat="48.92759" lon="2.07824">
        <ele>80.3</ele>
        <time>2021-01-26T08:25:36Z</time>
      </trkpt>
      <trkpt lat="48.92746" lon="2.07805">
        <ele>79.51</ele>
        <time>2021-01-26T08:25:53Z</time>
      </trkpt>
      <trkpt lat="48.92741" lon="2.07798">
        <ele>79.6</ele>
        <time>2021-01-26T08:25:59Z</time>
      </trkpt>
      <trkpt lat="48.92729" lon="2.07778">
        <ele>79.24</ele>
        <time>2021-01-26T08:26:15Z</time>
      </trkpt>
      <trkpt lat="48.92712" lon="2.07755">
        <ele>78.48</ele>
        <time>2021-01-26T08:26:35Z</time>
      </trkpt>
      <trkpt lat="48.92707" lon="2.07747">
        <ele>79.13</ele>
        <time>2021-01-26T08:26:41Z</time>
      </trkpt>
      <trkpt lat="48.92702" lon="2.07739">
        <ele>78.72</ele>
        <time>2021-01-26T08:26:47Z</time>
      </trkpt>
      <trkpt lat="48.92692" lon="2.0773">
        <ele>78.8</ele>
        <time>2021-01-26T08:26:59Z</time>
      </trkpt>
      <trkpt lat="48.9268" lon="2.0773">
        <ele>77.81</ele>
        <time>2021-01-26T08:27:22Z</time>
      </trkpt>
      <trkpt lat="48.92679" lon="2.07732">
        <ele>77.9</ele>
        <time>2021-01-26T08:27:24Z</time>
      </trkpt>
      <trkpt lat="48.9267" lon="2.07752">
        <ele>77.12</ele>
        <time>2021-01-26T08:27:42Z</time>
      </trkpt>
      <trkpt lat="48.92667" lon="2.07755">
        <ele>77.23</ele>
        <time>2021-01-26T08:27:46Z</time>
      </trkpt>
      <trkpt lat="48.92655" lon="2.07779">
        <ele>76.67</ele>
        <time>2021-01-26T08:28:06Z</time>
      </trkpt>
      <trkpt lat="48.92646" lon="2.07809">
        <ele>76.93</ele>
        <time>2021-01-26T08:28:26Z</time>
      </trkpt>
      <trkpt lat="48.92632" lon="2.07844">
        <ele>75.52</ele>
        <time>2021-01-26T08:28:46Z</time>
      </trkpt>
      <trkpt lat="48.92618" lon="2.07862">
        <ele>75.47</ele>
        <time>2021-01-26T08:28:57Z</time>
      </trkpt>
      <trkpt lat="48.92615" lon="2.07862">
        <ele>76.35</ele>
        <time>2021-01-26T08:28:59Z</time>
      </trkpt>
      <trkpt lat="48.92589" lon="2.07859">
        <ele>75.85</ele>
        <time>2021-01-26T08:29:20Z</time>
      </trkpt>
      <trkpt lat="48.92565" lon="2.07856">
        <ele>75.88</ele>
        <time>2021-01-26T08:29:37Z</time>
      </trkpt>
      <trkpt lat="48.9254" lon="2.07845">
        <ele>75.57</ele>
        <time>2021-01-26T08:29:56Z</time>
      </trkpt>
      <trkpt lat="48.92518" lon="2.07839">
        <ele>74.96</ele>
        <time>2021-01-26T08:30:10Z</time>
      </trkpt>
      <trkpt lat="48.92499" lon="2.07835">
        <ele>75.17</ele>
        <time>2021-01-26T08:30:23Z</time>
      </trkpt>
      <trkpt lat="48.92484" lon="2.07831">
        <ele>74.89</ele>
        <time>2021-01-26T08:30:36Z</time>
      </trkpt>
      <trkpt lat="48.92465" lon="2.07821">
        <ele>74.04</ele>
        <time>2021-01-26T08:30:51Z</time>
      </trkpt>
      <trkpt lat="48.92455" lon="2.07818">
        <ele>74.36</ele>
        <time>2021-01-26T08:30:59Z</time>
      </trkpt>
      <trkpt lat="48.92429" lon="2.07805">
        <ele>73.76</ele>
        <time>2021-01-26T08:31:14Z</time>
      </trkpt>
      <trkpt lat="48.92413" lon="2.07797">
        <ele>72.77</ele>
        <time>2021-01-26T08:31:23Z</time>
      </trkpt>
      <trkpt lat="48.92395" lon="2.07793">
        <ele>72.47</ele>
        <time>2021-01-26T08:31:38Z</time>
      </trkpt>
      <trkpt lat="48.92388" lon="2.07793">
        <ele>72.33</ele>
        <time>2021-01-26T08:31:43Z</time>
      </trkpt>
      <trkpt lat="48.9238" lon="2.07789">
        <ele>72.59</ele>
        <time>2021-01-26T08:31:50Z</time>
      </trkpt>
      <trkpt lat="48.92364" lon="2.07778">
        <ele>71.86</ele>
        <time>2021-01-26T08:32:05Z</time>
      </trkpt>
      <trkpt lat="48.92341" lon="2.0777">
        <ele>71.95</ele>
        <time>2021-01-26T08:32:23Z</time>
      </trkpt>
      <trkpt lat="48.92329" lon="2.07766">
        <ele>71.36</ele>
        <time>2021-01-26T08:32:32Z</time>
      </trkpt>
      <trkpt lat="48.92325" lon="2.07765">
        <ele>70.9</ele>
        <time>2021-01-26T08:32:34Z</time>
      </trkpt>
      <trkpt lat="48.92301" lon="2.07753">
        <ele>71.22</ele>
        <time>2021-01-26T08:32:48Z</time>
      </trkpt>
      <trkpt lat="48.92298" lon="2.07753">
        <ele>71.03</ele>
        <time>2021-01-26T08:32:50Z</time>
      </trkpt>
      <trkpt lat="48.92282" lon="2.07739">
        <ele>70.68</ele>
        <time>2021-01-26T08:33:04Z</time>
      </trkpt>
      <trkpt lat="48.92275" lon="2.07733">
        <ele>70.26</ele>
        <time>2021-01-26T08:33:13Z</time>
      </trkpt>
      <trkpt lat="48.92256" lon="2.07724">
        <ele>69.97</ele>
        <time>2021-01-26T08:33:32Z</time>
      </trkpt>
      <trkpt lat="48.92239" lon="2.0772">
        <ele>69.8</ele>
        <time>2021-01-26T08:33:44Z</time>
      </trkpt>
      <trkpt lat="48.92237" lon="2.07718">
        <ele>69.62</ele>
        <time>2021-01-26T08:33:46Z</time>
      </trkpt>
      <trkpt lat="48.92219" lon="2.07711">
        <ele>68.96</ele>
        <time>2021-01-26T08:34:04Z</time>
      </trkpt>
      <trkpt lat="48.92207" lon="2.07701">
        <ele>69.23</ele>
        <time>2021-01-26T08:34:19Z</time>
      </trkpt>
      <trkpt lat="48.92203" lon="2.07699">
        <ele>68.99</ele>
        <time>2021-01-26T08:34:26Z</time>
      </trkpt>
      <trkpt lat="48.92206" lon="2.07688">
        <ele>70.15</ele>
        <time>2021-01-26T08:34:49Z</time>
      </trkpt>
      <trkpt lat="48.92196" lon="2.07666">
        <ele>69.24</ele>
        <time>2021-01-26T08:35:03Z</time>
      </trkpt>
      <trkpt lat="48.92181" lon="2.07635">
        <ele>71</ele>
        <time>2021-01-26T08:35:23Z</time>
      </trkpt>
      <trkpt lat="48.92171" lon="2.0761">
        <ele>72.95</ele>
        <time>2021-01-26T08:35:45Z</time>
      </trkpt>
      <trkpt lat="48.92161" lon="2.07596">
        <ele>72.43</ele>
        <time>2021-01-26T08:35:57Z</time>
      </trkpt>
      <trkpt lat="48.92155" lon="2.0758">
        <ele>72.55</ele>
        <time>2021-01-26T08:36:13Z</time>
      </trkpt>
      <trkpt lat="48.92155" lon="2.07574">
        <ele>71.86</ele>
        <time>2021-01-26T08:36:27Z</time>
      </trkpt>
      <trkpt lat="48.92146" lon="2.07567">
        <ele>71.71</ele>
        <time>2021-01-26T08:36:51Z</time>
      </trkpt>
      <trkpt lat="48.92144" lon="2.0756">
        <ele>69.81</ele>
        <time>2021-01-26T08:37:12Z</time>
      </trkpt>
      <trkpt lat="48.92141" lon="2.07554">
        <ele>70.1</ele>
        <time>2021-01-26T08:37:32Z</time>
      </trkpt>
      <trkpt lat="48.92143" lon="2.07547">
        <ele>69.18</ele>
        <time>2021-01-26T08:37:54Z</time>
      </trkpt>
      <trkpt lat="48.9214" lon="2.07548">
        <ele>68.95</ele>
        <time>2021-01-26T08:38:12Z</time>
      </trkpt>
      <trkpt lat="48.92136" lon="2.07541">
        <ele>67.39</ele>
        <time>2021-01-26T08:38:32Z</time>
      </trkpt>
      <trkpt lat="48.92129" lon="2.07538">
        <ele>63.82</ele>
        <time>2021-01-26T08:38:49Z</time>
      </trkpt>
      <trkpt lat="48.92127" lon="2.07544">
        <ele>64.21</ele>
        <time>2021-01-26T08:38:59Z</time>
      </trkpt>
      <trkpt lat="48.9213" lon="2.0757">
        <ele>63.76</ele>
        <time>2021-01-26T08:39:17Z</time>
      </trkpt>
      <trkpt lat="48.92127" lon="2.07604">
        <ele>63.93</ele>
        <time>2021-01-26T08:39:37Z</time>
      </trkpt>
      <trkpt lat="48.92124" lon="2.07627">
        <ele>63.56</ele>
        <time>2021-01-26T08:39:50Z</time>
      </trkpt>
      <trkpt lat="48.92123" lon="2.0763">
        <ele>63.91</ele>
        <time>2021-01-26T08:39:52Z</time>
      </trkpt>
      <trkpt lat="48.92107" lon="2.07632">
        <ele>63.5</ele>
        <time>2021-01-26T08:40:12Z</time>
      </trkpt>
      <trkpt lat="48.92086" lon="2.07623">
        <ele>63.36</ele>
        <time>2021-01-26T08:40:28Z</time>
      </trkpt>
      <trkpt lat="48.92084" lon="2.07622">
        <ele>63.6</ele>
        <time>2021-01-26T08:40:29Z</time>
      </trkpt>
      <trkpt lat="48.92051" lon="2.07616">
        <ele>64.47</ele>
        <time>2021-01-26T08:40:51Z</time>
      </trkpt>
      <trkpt lat="48.92032" lon="2.07608">
        <ele>64.26</ele>
        <time>2021-01-26T08:41:07Z</time>
      </trkpt>
      <trkpt lat="48.92012" lon="2.076">
        <ele>63.82</ele>
        <time>2021-01-26T08:41:26Z</time>
      </trkpt>
      <trkpt lat="48.91987" lon="2.07593">
        <ele>63.86</ele>
        <time>2021-01-26T08:41:45Z</time>
      </trkpt>
      <trkpt lat="48.91959" lon="2.07582">
        <ele>64.03</ele>
        <time>2021-01-26T08:42:05Z</time>
      </trkpt>
      <trkpt lat="48.91933" lon="2.07567">
        <ele>63.72</ele>
        <time>2021-01-26T08:42:25Z</time>
      </trkpt>
      <trkpt lat="48.91906" lon="2.07557">
        <ele>62.87</ele>
        <time>2021-01-26T08:42:46Z</time>
      </trkpt>
      <trkpt lat="48.91895" lon="2.07552">
        <ele>62.49</ele>
        <time>2021-01-26T08:42:55Z</time>
      </trkpt>
      <trkpt lat="48.91889" lon="2.07552">
        <ele>63.71</ele>
        <time>2021-01-26T08:42:58Z</time>
      </trkpt>
      <trkpt lat="48.91887" lon="2.07552">
        <ele>63.29</ele>
        <time>2021-01-26T08:43:00Z</time>
      </trkpt>
      <trkpt lat="48.91878" lon="2.0755">
        <ele>62.81</ele>
        <time>2021-01-26T08:43:06Z</time>
      </trkpt>
      <trkpt lat="48.91873" lon="2.07546">
        <ele>63.14</ele>
        <time>2021-01-26T08:43:10Z</time>
      </trkpt>
      <trkpt lat="48.9186" lon="2.07541">
        <ele>62.08</ele>
        <time>2021-01-26T08:43:19Z</time>
      </trkpt>
      <trkpt lat="48.91853" lon="2.07539">
        <ele>62.31</ele>
        <time>2021-01-26T08:43:24Z</time>
      </trkpt>
      <trkpt lat="48.91829" lon="2.0753">
        <ele>61.47</ele>
        <time>2021-01-26T08:43:40Z</time>
      </trkpt>
      <trkpt lat="48.91823" lon="2.07527">
        <ele>61.86</ele>
        <time>2021-01-26T08:43:43Z</time>
      </trkpt>
      <trkpt lat="48.91817" lon="2.07522">
        <ele>61.83</ele>
        <time>2021-01-26T08:43:47Z</time>
      </trkpt>
      <trkpt lat="48.91803" lon="2.07515">
        <ele>61.09</ele>
        <time>2021-01-26T08:43:59Z</time>
      </trkpt>
      <trkpt lat="48.91791" lon="2.07499">
        <ele>61.12</ele>
        <time>2021-01-26T08:44:17Z</time>
      </trkpt>
      <trkpt lat="48.91791" lon="2.07491">
        <ele>61.14</ele>
        <time>2021-01-26T08:44:35Z</time>
      </trkpt>
      <trkpt lat="48.91789" lon="2.07484">
        <ele>60.21</ele>
        <time>2021-01-26T08:44:49Z</time>
      </trkpt>
      <trkpt lat="48.91788" lon="2.07478">
        <ele>59.93</ele>
        <time>2021-01-26T08:45:17Z</time>
      </trkpt>
      <trkpt lat="48.91786" lon="2.07477">
        <ele>59.66</ele>
        <time>2021-01-26T08:45:23Z</time>
      </trkpt>
      <trkpt lat="48.91786" lon="2.07473">
        <ele>59.22</ele>
        <time>2021-01-26T08:45:25Z</time>
      </trkpt>
      <trkpt lat="48.91784" lon="2.07471">
        <ele>59.65</ele>
        <time>2021-01-26T08:45:27Z</time>
      </trkpt>
      <trkpt lat="48.91783" lon="2.07434">
        <ele>58.75</ele>
        <time>2021-01-26T08:45:49Z</time>
      </trkpt>
      <trkpt lat="48.91787" lon="2.07391">
        <ele>58.23</ele>
        <time>2021-01-26T08:46:10Z</time>
      </trkpt>
      <trkpt lat="48.91793" lon="2.0735">
        <ele>57.89</ele>
        <time>2021-01-26T08:46:26Z</time>
      </trkpt>
      <trkpt lat="48.91793" lon="2.07348">
        <ele>57.99</ele>
        <time>2021-01-26T08:46:27Z</time>
      </trkpt>
      <trkpt lat="48.91796" lon="2.07333">
        <ele>57.46</ele>
        <time>2021-01-26T08:46:33Z</time>
      </trkpt>
      <trkpt lat="48.91794" lon="2.07319">
        <ele>57.48</ele>
        <time>2021-01-26T08:46:40Z</time>
      </trkpt>
      <trkpt lat="48.91797" lon="2.07284">
        <ele>56.94</ele>
        <time>2021-01-26T08:46:55Z</time>
      </trkpt>
      <trkpt lat="48.91796" lon="2.07272">
        <ele>56.68</ele>
        <time>2021-01-26T08:47:02Z</time>
      </trkpt>
      <trkpt lat="48.91797" lon="2.07263">
        <ele>57.05</ele>
        <time>2021-01-26T08:47:06Z</time>
      </trkpt>
      <trkpt lat="48.918" lon="2.07233">
        <ele>56.79</ele>
        <time>2021-01-26T08:47:19Z</time>
      </trkpt>
      <trkpt lat="48.918" lon="2.07228">
        <ele>56.32</ele>
        <time>2021-01-26T08:47:21Z</time>
      </trkpt>
      <trkpt lat="48.91803" lon="2.07219">
        <ele>55.91</ele>
        <time>2021-01-26T08:47:25Z</time>
      </trkpt>
      <trkpt lat="48.91804" lon="2.07199">
        <ele>56.45</ele>
        <time>2021-01-26T08:47:34Z</time>
      </trkpt>
      <trkpt lat="48.918" lon="2.07168">
        <ele>55.48</ele>
        <time>2021-01-26T08:47:47Z</time>
      </trkpt>
      <trkpt lat="48.91803" lon="2.07143">
        <ele>55.51</ele>
        <time>2021-01-26T08:48:01Z</time>
      </trkpt>
      <trkpt lat="48.91802" lon="2.07133">
        <ele>55.37</ele>
        <time>2021-01-26T08:48:06Z</time>
      </trkpt>
      <trkpt lat="48.91803" lon="2.07123">
        <ele>55.38</ele>
        <time>2021-01-26T08:48:11Z</time>
      </trkpt>
      <trkpt lat="48.91804" lon="2.0711">
        <ele>54.54</ele>
        <time>2021-01-26T08:48:18Z</time>
      </trkpt>
      <trkpt lat="48.91805" lon="2.07103">
        <ele>54.24</ele>
        <time>2021-01-26T08:48:21Z</time>
      </trkpt>
      <trkpt lat="48.91806" lon="2.07094">
        <ele>54.53</ele>
        <time>2021-01-26T08:48:26Z</time>
      </trkpt>
      <trkpt lat="48.9181" lon="2.0708">
        <ele>54.37</ele>
        <time>2021-01-26T08:48:32Z</time>
      </trkpt>
      <trkpt lat="48.91816" lon="2.07057">
        <ele>53.15</ele>
        <time>2021-01-26T08:48:46Z</time>
      </trkpt>
      <trkpt lat="48.91814" lon="2.07051">
        <ele>53.23</ele>
        <time>2021-01-26T08:49:01Z</time>
      </trkpt>
      <trkpt lat="48.91818" lon="2.07057">
        <ele>52.94</ele>
        <time>2021-01-26T08:49:07Z</time>
      </trkpt>
      <trkpt lat="48.91818" lon="2.0705">
        <ele>52.6</ele>
        <time>2021-01-26T08:49:30Z</time>
      </trkpt>
      <trkpt lat="48.9182" lon="2.07052">
        <ele>52.29</ele>
        <time>2021-01-26T08:49:35Z</time>
      </trkpt>
      <trkpt lat="48.91824" lon="2.07054">
        <ele>52.14</ele>
        <time>2021-01-26T08:49:43Z</time>
      </trkpt>
      <trkpt lat="48.9185" lon="2.07054">
        <ele>51.56</ele>
        <time>2021-01-26T08:50:04Z</time>
      </trkpt>
      <trkpt lat="48.91863" lon="2.0706">
        <ele>50.81</ele>
        <time>2021-01-26T08:50:14Z</time>
      </trkpt>
      <trkpt lat="48.91868" lon="2.07061">
        <ele>50.83</ele>
        <time>2021-01-26T08:50:20Z</time>
      </trkpt>
      <trkpt lat="48.91873" lon="2.07061">
        <ele>50.52</ele>
        <time>2021-01-26T08:50:23Z</time>
      </trkpt>
      <trkpt lat="48.91894" lon="2.07065">
        <ele>50.25</ele>
        <time>2021-01-26T08:50:38Z</time>
      </trkpt>
      <trkpt lat="48.91912" lon="2.07067">
        <ele>49.97</ele>
        <time>2021-01-26T08:50:48Z</time>
      </trkpt>
      <trkpt lat="48.91923" lon="2.07069">
        <ele>49.59</ele>
        <time>2021-01-26T08:50:58Z</time>
      </trkpt>
      <trkpt lat="48.91934" lon="2.0707">
        <ele>49.9</ele>
        <time>2021-01-26T08:51:10Z</time>
      </trkpt>
      <trkpt lat="48.91938" lon="2.07071">
        <ele>49.48</ele>
        <time>2021-01-26T08:51:13Z</time>
      </trkpt>
      <trkpt lat="48.91941" lon="2.07072">
        <ele>49.41</ele>
        <time>2021-01-26T08:51:14Z</time>
      </trkpt>
      <trkpt lat="48.91969" lon="2.07075">
        <ele>49.71</ele>
        <time>2021-01-26T08:51:33Z</time>
      </trkpt>
      <trkpt lat="48.91987" lon="2.07079">
        <ele>48.93</ele>
        <time>2021-01-26T08:51:46Z</time>
      </trkpt>
      <trkpt lat="48.92001" lon="2.07083">
        <ele>48.77</ele>
        <time>2021-01-26T08:51:57Z</time>
      </trkpt>
      <trkpt lat="48.9202" lon="2.07088">
        <ele>48.94</ele>
        <time>2021-01-26T08:52:08Z</time>
      </trkpt>
      <trkpt lat="48.92037" lon="2.07092">
        <ele>49.2</ele>
        <time>2021-01-26T08:52:23Z</time>
      </trkpt>
      <trkpt lat="48.92059" lon="2.07093">
        <ele>48.72</ele>
        <time>2021-01-26T08:52:38Z</time>
      </trkpt>
      <trkpt lat="48.92077" lon="2.07099">
        <ele>49.43</ele>
        <time>2021-01-26T08:52:50Z</time>
      </trkpt>
      <trkpt lat="48.92091" lon="2.071">
        <ele>48.58</ele>
        <time>2021-01-26T08:53:01Z</time>
      </trkpt>
      <trkpt lat="48.92093" lon="2.07101">
        <ele>48.6</ele>
        <time>2021-01-26T08:53:02Z</time>
      </trkpt>
      <trkpt lat="48.92107" lon="2.07109">
        <ele>48.44</ele>
        <time>2021-01-26T08:53:13Z</time>
      </trkpt>
      <trkpt lat="48.9211" lon="2.0711">
        <ele>48.87</ele>
        <time>2021-01-26T08:53:15Z</time>
      </trkpt>
      <trkpt lat="48.92123" lon="2.07111">
        <ele>48.78</ele>
        <time>2021-01-26T08:53:23Z</time>
      </trkpt>
      <trkpt lat="48.92139" lon="2.07116">
        <ele>48.51</ele>
        <time>2021-01-26T08:53:32Z</time>
      </trkpt>
      <trkpt lat="48.9216" lon="2.07121">
        <ele>48.26</ele>
        <time>2021-01-26T08:53:43Z</time>
      </trkpt>
      <trkpt lat="48.92177" lon="2.07125">
        <ele>48.48</ele>
        <time>2021-01-26T08:53:56Z</time>
      </trkpt>
      <trkpt lat="48.92178" lon="2.07125">
        <ele>48.7</ele>
        <time>2021-01-26T08:53:57Z</time>
      </trkpt>
      <trkpt lat="48.92181" lon="2.07125">
        <ele>47.83</ele>
        <time>2021-01-26T08:53:59Z</time>
      </trkpt>
      <trkpt lat="48.92183" lon="2.07126">
        <ele>47.93</ele>
        <time>2021-01-26T08:54:00Z</time>
      </trkpt>
      <trkpt lat="48.92185" lon="2.07126">
        <ele>48.31</ele>
        <time>2021-01-26T08:54:01Z</time>
      </trkpt>
      <trkpt lat="48.92187" lon="2.07127">
        <ele>48.24</ele>
        <time>2021-01-26T08:54:02Z</time>
      </trkpt>
      <trkpt lat="48.92188" lon="2.07127">
        <ele>47.91</ele>
        <time>2021-01-26T08:54:03Z</time>
      </trkpt>
      <trkpt lat="48.92203" lon="2.0713">
        <ele>48.16</ele>
        <time>2021-01-26T08:54:14Z</time>
      </trkpt>
      <trkpt lat="48.92204" lon="2.07129">
        <ele>47.89</ele>
        <time>2021-01-26T08:54:15Z</time>
      </trkpt>
      <trkpt lat="48.92205" lon="2.0713">
        <ele>47.94</ele>
        <time>2021-01-26T08:54:16Z</time>
      </trkpt>
      <trkpt lat="48.92222" lon="2.0713">
        <ele>48.82</ele>
        <time>2021-01-26T08:54:27Z</time>
      </trkpt>
      <trkpt lat="48.92238" lon="2.07132">
        <ele>48.29</ele>
        <time>2021-01-26T08:54:44Z</time>
      </trkpt>
      <trkpt lat="48.92256" lon="2.07138">
        <ele>47.92</ele>
        <time>2021-01-26T08:55:02Z</time>
      </trkpt>
      <trkpt lat="48.92267" lon="2.07138">
        <ele>48.05</ele>
        <time>2021-01-26T08:55:10Z</time>
      </trkpt>
      <trkpt lat="48.92268" lon="2.07138">
        <ele>48.31</ele>
        <time>2021-01-26T08:55:11Z</time>
      </trkpt>
      <trkpt lat="48.92296" lon="2.07137">
        <ele>47.5</ele>
        <time>2021-01-26T08:55:30Z</time>
      </trkpt>
      <trkpt lat="48.92302" lon="2.07139">
        <ele>47.5</ele>
        <time>2021-01-26T08:55:35Z</time>
      </trkpt>
      <trkpt lat="48.92304" lon="2.07139">
        <ele>47.47</ele>
        <time>2021-01-26T08:55:36Z</time>
      </trkpt>
      <trkpt lat="48.92318" lon="2.07137">
        <ele>47.66</ele>
        <time>2021-01-26T08:55:45Z</time>
      </trkpt>
      <trkpt lat="48.92319" lon="2.07137">
        <ele>47.26</ele>
        <time>2021-01-26T08:55:46Z</time>
      </trkpt>
      <trkpt lat="48.92322" lon="2.07137">
        <ele>47.46</ele>
        <time>2021-01-26T08:55:48Z</time>
      </trkpt>
      <trkpt lat="48.92327" lon="2.07134">
        <ele>47.51</ele>
        <time>2021-01-26T08:55:53Z</time>
      </trkpt>
      <trkpt lat="48.92328" lon="2.07134">
        <ele>47.87</ele>
        <time>2021-01-26T08:55:55Z</time>
      </trkpt>
      <trkpt lat="48.92325" lon="2.0713">
        <ele>48.15</ele>
        <time>2021-01-26T08:56:17Z</time>
      </trkpt>
      <trkpt lat="48.92323" lon="2.07138">
        <ele>48.27</ele>
        <time>2021-01-26T08:56:41Z</time>
      </trkpt>
      <trkpt lat="48.92323" lon="2.07136">
        <ele>48.2</ele>
        <time>2021-01-26T08:57:02Z</time>
      </trkpt>
      <trkpt lat="48.92322" lon="2.07136">
        <ele>48.31</ele>
        <time>2021-01-26T08:57:28Z</time>
      </trkpt>
      <trkpt lat="48.9232" lon="2.07138">
        <ele>48.09</ele>
        <time>2021-01-26T08:57:51Z</time>
      </trkpt>
      <trkpt lat="48.92321" lon="2.0714">
        <ele>48.86</ele>
        <time>2021-01-26T08:58:17Z</time>
      </trkpt>
      <trkpt lat="48.92318" lon="2.07142">
        <ele>48.73</ele>
        <time>2021-01-26T08:58:42Z</time>
      </trkpt>
      <trkpt lat="48.92318" lon="2.07139">
        <ele>49.42</ele>
        <time>2021-01-26T08:59:09Z</time>
      </trkpt>
      <trkpt lat="48.92318" lon="2.07139">
        <ele>49.7</ele>
        <time>2021-01-26T08:59:43Z</time>
      </trkpt>
      <trkpt lat="48.92319" lon="2.07137">
        <ele>50.21</ele>
        <time>2021-01-26T09:00:14Z</time>
      </trkpt>
      <trkpt lat="48.92318" lon="2.07137">
        <ele>50.1</ele>
        <time>2021-01-26T09:00:44Z</time>
      </trkpt>
      <trkpt lat="48.92317" lon="2.07138">
        <ele>50.16</ele>
        <time>2021-01-26T09:01:07Z</time>
      </trkpt>
      <trkpt lat="48.92317" lon="2.07139">
        <ele>50.14</ele>
        <time>2021-01-26T09:01:29Z</time>
      </trkpt>
      <trkpt lat="48.92316" lon="2.07136">
        <ele>51.1</ele>
        <time>2021-01-26T09:01:50Z</time>
      </trkpt>
      <trkpt lat="48.92308" lon="2.07121">
        <ele>50.16</ele>
        <time>2021-01-26T09:02:03Z</time>
      </trkpt>
      <trkpt lat="48.92307" lon="2.07119">
        <ele>50.53</ele>
        <time>2021-01-26T09:02:04Z</time>
      </trkpt>
      <trkpt lat="48.92294" lon="2.07095">
        <ele>51.07</ele>
        <time>2021-01-26T09:02:19Z</time>
      </trkpt>
      <trkpt lat="48.92293" lon="2.07093">
        <ele>50.9</ele>
        <time>2021-01-26T09:02:20Z</time>
      </trkpt>
      <trkpt lat="48.92292" lon="2.07092">
        <ele>51.06</ele>
        <time>2021-01-26T09:02:21Z</time>
      </trkpt>
      <trkpt lat="48.92284" lon="2.07076">
        <ele>51.7</ele>
        <time>2021-01-26T09:02:32Z</time>
      </trkpt>
      <trkpt lat="48.92283" lon="2.07075">
        <ele>51.56</ele>
        <time>2021-01-26T09:02:33Z</time>
      </trkpt>
      <trkpt lat="48.92275" lon="2.07066">
        <ele>51.11</ele>
        <time>2021-01-26T09:02:41Z</time>
      </trkpt>
      <trkpt lat="48.92264" lon="2.07049">
        <ele>51.44</ele>
        <time>2021-01-26T09:02:54Z</time>
      </trkpt>
      <trkpt lat="48.92252" lon="2.07022">
        <ele>51.32</ele>
        <time>2021-01-26T09:03:11Z</time>
      </trkpt>
      <trkpt lat="48.92237" lon="2.07003">
        <ele>51.11</ele>
        <time>2021-01-26T09:03:25Z</time>
      </trkpt>
      <trkpt lat="48.92236" lon="2.07001">
        <ele>51.1</ele>
        <time>2021-01-26T09:03:26Z</time>
      </trkpt>
      <trkpt lat="48.92234" lon="2.06997">
        <ele>51.12</ele>
        <time>2021-01-26T09:03:28Z</time>
      </trkpt>
      <trkpt lat="48.92221" lon="2.06976">
        <ele>51.28</ele>
        <time>2021-01-26T09:03:42Z</time>
      </trkpt>
      <trkpt lat="48.92217" lon="2.06973">
        <ele>51.03</ele>
        <time>2021-01-26T09:03:46Z</time>
      </trkpt>
      <trkpt lat="48.92216" lon="2.06972">
        <ele>51.07</ele>
        <time>2021-01-26T09:03:47Z</time>
      </trkpt>
      <trkpt lat="48.92215" lon="2.06971">
        <ele>50.91</ele>
        <time>2021-01-26T09:03:48Z</time>
      </trkpt>
      <trkpt lat="48.9221" lon="2.0696">
        <ele>50.89</ele>
        <time>2021-01-26T09:03:52Z</time>
      </trkpt>
      <trkpt lat="48.92209" lon="2.06955">
        <ele>50.58</ele>
        <time>2021-01-26T09:03:55Z</time>
      </trkpt>
      <trkpt lat="48.92208" lon="2.06953">
        <ele>50.57</ele>
        <time>2021-01-26T09:03:56Z</time>
      </trkpt>
      <trkpt lat="48.92207" lon="2.06951">
        <ele>50.56</ele>
        <time>2021-01-26T09:03:57Z</time>
      </trkpt>
      <trkpt lat="48.92206" lon="2.0695">
        <ele>50.56</ele>
        <time>2021-01-26T09:03:58Z</time>
      </trkpt>
      <trkpt lat="48.92195" lon="2.06937">
        <ele>50.19</ele>
        <time>2021-01-26T09:04:09Z</time>
      </trkpt>
      <trkpt lat="48.92183" lon="2.06917">
        <ele>50.64</ele>
        <time>2021-01-26T09:04:21Z</time>
      </trkpt>
      <trkpt lat="48.92181" lon="2.06915">
        <ele>50.37</ele>
        <time>2021-01-26T09:04:23Z</time>
      </trkpt>
      <trkpt lat="48.9218" lon="2.06913">
        <ele>50.85</ele>
        <time>2021-01-26T09:04:24Z</time>
      </trkpt>
      <trkpt lat="48.92179" lon="2.06912">
        <ele>50.09</ele>
        <time>2021-01-26T09:04:25Z</time>
      </trkpt>
      <trkpt lat="48.92177" lon="2.0691">
        <ele>50.8</ele>
        <time>2021-01-26T09:04:26Z</time>
      </trkpt>
      <trkpt lat="48.92176" lon="2.06909">
        <ele>50.1</ele>
        <time>2021-01-26T09:04:27Z</time>
      </trkpt>
      <trkpt lat="48.92175" lon="2.06907">
        <ele>50.51</ele>
        <time>2021-01-26T09:04:28Z</time>
      </trkpt>
      <trkpt lat="48.92174" lon="2.06905">
        <ele>50.42</ele>
        <time>2021-01-26T09:04:29Z</time>
      </trkpt>
      <trkpt lat="48.92172" lon="2.06904">
        <ele>50.41</ele>
        <time>2021-01-26T09:04:30Z</time>
      </trkpt>
      <trkpt lat="48.92157" lon="2.06882">
        <ele>50.38</ele>
        <time>2021-01-26T09:04:43Z</time>
      </trkpt>
      <trkpt lat="48.92144" lon="2.06863">
        <ele>50.27</ele>
        <time>2021-01-26T09:04:57Z</time>
      </trkpt>
      <trkpt lat="48.92131" lon="2.06837">
        <ele>50.69</ele>
        <time>2021-01-26T09:05:12Z</time>
      </trkpt>
      <trkpt lat="48.9213" lon="2.06836">
        <ele>50.28</ele>
        <time>2021-01-26T09:05:13Z</time>
      </trkpt>
      <trkpt lat="48.9212" lon="2.06821">
        <ele>49.76</ele>
        <time>2021-01-26T09:05:24Z</time>
      </trkpt>
      <trkpt lat="48.92111" lon="2.06808">
        <ele>49.7</ele>
        <time>2021-01-26T09:05:34Z</time>
      </trkpt>
      <trkpt lat="48.92091" lon="2.0678">
        <ele>50.02</ele>
        <time>2021-01-26T09:05:55Z</time>
      </trkpt>
      <trkpt lat="48.92073" lon="2.06753">
        <ele>49.61</ele>
        <time>2021-01-26T09:06:09Z</time>
      </trkpt>
      <trkpt lat="48.92057" lon="2.06724">
        <ele>49.46</ele>
        <time>2021-01-26T09:06:31Z</time>
      </trkpt>
      <trkpt lat="48.92035" lon="2.06689">
        <ele>49.14</ele>
        <time>2021-01-26T09:06:50Z</time>
      </trkpt>
      <trkpt lat="48.9202" lon="2.0667">
        <ele>48.56</ele>
        <time>2021-01-26T09:07:06Z</time>
      </trkpt>
      <trkpt lat="48.92005" lon="2.06647">
        <ele>48.64</ele>
        <time>2021-01-26T09:07:27Z</time>
      </trkpt>
      <trkpt lat="48.91992" lon="2.06632">
        <ele>48.24</ele>
        <time>2021-01-26T09:07:41Z</time>
      </trkpt>
      <trkpt lat="48.91991" lon="2.0663">
        <ele>48.42</ele>
        <time>2021-01-26T09:07:42Z</time>
      </trkpt>
      <trkpt lat="48.9199" lon="2.06627">
        <ele>48.62</ele>
        <time>2021-01-26T09:07:43Z</time>
      </trkpt>
      <trkpt lat="48.91988" lon="2.06625">
        <ele>48.81</ele>
        <time>2021-01-26T09:07:44Z</time>
      </trkpt>
      <trkpt lat="48.91987" lon="2.06623">
        <ele>48.43</ele>
        <time>2021-01-26T09:07:45Z</time>
      </trkpt>
      <trkpt lat="48.91985" lon="2.06619">
        <ele>48.58</ele>
        <time>2021-01-26T09:07:48Z</time>
      </trkpt>
      <trkpt lat="48.91974" lon="2.06601">
        <ele>48.05</ele>
        <time>2021-01-26T09:08:00Z</time>
      </trkpt>
      <trkpt lat="48.91973" lon="2.06599">
        <ele>47.93</ele>
        <time>2021-01-26T09:08:01Z</time>
      </trkpt>
      <trkpt lat="48.9196" lon="2.0658">
        <ele>47.59</ele>
        <time>2021-01-26T09:08:12Z</time>
      </trkpt>
      <trkpt lat="48.91959" lon="2.06579">
        <ele>48</ele>
        <time>2021-01-26T09:08:13Z</time>
      </trkpt>
      <trkpt lat="48.91943" lon="2.06555">
        <ele>47.71</ele>
        <time>2021-01-26T09:08:28Z</time>
      </trkpt>
      <trkpt lat="48.91937" lon="2.06547">
        <ele>47.91</ele>
        <time>2021-01-26T09:08:34Z</time>
      </trkpt>
      <trkpt lat="48.91936" lon="2.06546">
        <ele>47.56</ele>
        <time>2021-01-26T09:08:35Z</time>
      </trkpt>
      <trkpt lat="48.91935" lon="2.06544">
        <ele>47.57</ele>
        <time>2021-01-26T09:08:36Z</time>
      </trkpt>
      <trkpt lat="48.91934" lon="2.06543">
        <ele>47.58</ele>
        <time>2021-01-26T09:08:37Z</time>
      </trkpt>
      <trkpt lat="48.91924" lon="2.06528">
        <ele>46.88</ele>
        <time>2021-01-26T09:08:48Z</time>
      </trkpt>
      <trkpt lat="48.91915" lon="2.06517">
        <ele>47.32</ele>
        <time>2021-01-26T09:08:57Z</time>
      </trkpt>
      <trkpt lat="48.91904" lon="2.065">
        <ele>46.95</ele>
        <time>2021-01-26T09:09:08Z</time>
      </trkpt>
      <trkpt lat="48.9189" lon="2.06482">
        <ele>46.84</ele>
        <time>2021-01-26T09:09:25Z</time>
      </trkpt>
      <trkpt lat="48.91877" lon="2.06459">
        <ele>46.53</ele>
        <time>2021-01-26T09:09:39Z</time>
      </trkpt>
      <trkpt lat="48.91876" lon="2.06457">
        <ele>46.32</ele>
        <time>2021-01-26T09:09:40Z</time>
      </trkpt>
      <trkpt lat="48.91875" lon="2.06456">
        <ele>46.56</ele>
        <time>2021-01-26T09:09:41Z</time>
      </trkpt>
      <trkpt lat="48.91872" lon="2.06449">
        <ele>45.75</ele>
        <time>2021-01-26T09:09:45Z</time>
      </trkpt>
      <trkpt lat="48.91863" lon="2.06437">
        <ele>45.8</ele>
        <time>2021-01-26T09:09:53Z</time>
      </trkpt>
      <trkpt lat="48.91862" lon="2.06434">
        <ele>46.31</ele>
        <time>2021-01-26T09:09:54Z</time>
      </trkpt>
      <trkpt lat="48.91861" lon="2.06432">
        <ele>46.26</ele>
        <time>2021-01-26T09:09:55Z</time>
      </trkpt>
      <trkpt lat="48.9186" lon="2.0643">
        <ele>46.06</ele>
        <time>2021-01-26T09:09:56Z</time>
      </trkpt>
      <trkpt lat="48.91853" lon="2.06415">
        <ele>46.76</ele>
        <time>2021-01-26T09:10:05Z</time>
      </trkpt>
      <trkpt lat="48.91852" lon="2.06413">
        <ele>46.76</ele>
        <time>2021-01-26T09:10:06Z</time>
      </trkpt>
      <trkpt lat="48.91851" lon="2.06412">
        <ele>45.72</ele>
        <time>2021-01-26T09:10:07Z</time>
      </trkpt>
      <trkpt lat="48.9185" lon="2.06411">
        <ele>45.57</ele>
        <time>2021-01-26T09:10:08Z</time>
      </trkpt>
      <trkpt lat="48.91848" lon="2.06409">
        <ele>45.08</ele>
        <time>2021-01-26T09:10:09Z</time>
      </trkpt>
      <trkpt lat="48.91847" lon="2.06408">
        <ele>45.05</ele>
        <time>2021-01-26T09:10:10Z</time>
      </trkpt>
      <trkpt lat="48.91846" lon="2.06406">
        <ele>45.74</ele>
        <time>2021-01-26T09:10:11Z</time>
      </trkpt>
      <trkpt lat="48.91849" lon="2.06394">
        <ele>45.66</ele>
        <time>2021-01-26T09:10:20Z</time>
      </trkpt>
      <trkpt lat="48.91851" lon="2.06392">
        <ele>45.89</ele>
        <time>2021-01-26T09:10:21Z</time>
      </trkpt>
      <trkpt lat="48.91852" lon="2.06389">
        <ele>46.16</ele>
        <time>2021-01-26T09:10:23Z</time>
      </trkpt>
      <trkpt lat="48.91867" lon="2.06381">
        <ele>46.47</ele>
        <time>2021-01-26T09:10:38Z</time>
      </trkpt>
      <trkpt lat="48.91873" lon="2.06381">
        <ele>47.12</ele>
        <time>2021-01-26T09:10:45Z</time>
      </trkpt>
      <trkpt lat="48.9188" lon="2.06377">
        <ele>46.76</ele>
        <time>2021-01-26T09:11:03Z</time>
      </trkpt>
      <trkpt lat="48.91879" lon="2.06379">
        <ele>46.21</ele>
        <time>2021-01-26T09:11:28Z</time>
      </trkpt>
      <trkpt lat="48.91879" lon="2.06375">
        <ele>46.02</ele>
        <time>2021-01-26T09:12:01Z</time>
      </trkpt>
      <trkpt lat="48.91877" lon="2.06372">
        <ele>47.39</ele>
        <time>2021-01-26T09:12:27Z</time>
      </trkpt>
      <trkpt lat="48.91882" lon="2.0637">
        <ele>46.3</ele>
        <time>2021-01-26T09:12:49Z</time>
      </trkpt>
      <trkpt lat="48.91887" lon="2.06376">
        <ele>46.95</ele>
        <time>2021-01-26T09:13:08Z</time>
      </trkpt>
      <trkpt lat="48.91892" lon="2.06378">
        <ele>47.58</ele>
        <time>2021-01-26T09:13:12Z</time>
      </trkpt>
      <trkpt lat="48.91909" lon="2.06386">
        <ele>47.5</ele>
        <time>2021-01-26T09:13:25Z</time>
      </trkpt>
      <trkpt lat="48.91912" lon="2.06386">
        <ele>46.88</ele>
        <time>2021-01-26T09:13:27Z</time>
      </trkpt>
      <trkpt lat="48.91913" lon="2.06387">
        <ele>47.18</ele>
        <time>2021-01-26T09:13:28Z</time>
      </trkpt>
      <trkpt lat="48.91925" lon="2.06389">
        <ele>47.04</ele>
        <time>2021-01-26T09:13:38Z</time>
      </trkpt>
      <trkpt lat="48.9194" lon="2.06391">
        <ele>47.68</ele>
        <time>2021-01-26T09:13:52Z</time>
      </trkpt>
      <trkpt lat="48.91959" lon="2.06391">
        <ele>47.51</ele>
        <time>2021-01-26T09:14:02Z</time>
      </trkpt>
      <trkpt lat="48.9196" lon="2.0639">
        <ele>47.49</ele>
        <time>2021-01-26T09:14:03Z</time>
      </trkpt>
      <trkpt lat="48.91962" lon="2.06391">
        <ele>47.59</ele>
        <time>2021-01-26T09:14:04Z</time>
      </trkpt>
      <trkpt lat="48.91966" lon="2.06392">
        <ele>47.24</ele>
        <time>2021-01-26T09:14:07Z</time>
      </trkpt>
      <trkpt lat="48.91968" lon="2.06392">
        <ele>47.28</ele>
        <time>2021-01-26T09:14:08Z</time>
      </trkpt>
      <trkpt lat="48.91988" lon="2.06394">
        <ele>47.26</ele>
        <time>2021-01-26T09:14:22Z</time>
      </trkpt>
      <trkpt lat="48.92" lon="2.06397">
        <ele>47.76</ele>
        <time>2021-01-26T09:14:32Z</time>
      </trkpt>
      <trkpt lat="48.92003" lon="2.06398">
        <ele>47.92</ele>
        <time>2021-01-26T09:14:34Z</time>
      </trkpt>
      <trkpt lat="48.92017" lon="2.06399">
        <ele>47.29</ele>
        <time>2021-01-26T09:14:49Z</time>
      </trkpt>
      <trkpt lat="48.92018" lon="2.064">
        <ele>47.68</ele>
        <time>2021-01-26T09:14:50Z</time>
      </trkpt>
      <trkpt lat="48.9202" lon="2.064">
        <ele>47.19</ele>
        <time>2021-01-26T09:14:51Z</time>
      </trkpt>
      <trkpt lat="48.92021" lon="2.064">
        <ele>47.67</ele>
        <time>2021-01-26T09:14:52Z</time>
      </trkpt>
      <trkpt lat="48.92023" lon="2.064">
        <ele>47.69</ele>
        <time>2021-01-26T09:14:53Z</time>
      </trkpt>
      <trkpt lat="48.92024" lon="2.064">
        <ele>47.69</ele>
        <time>2021-01-26T09:14:54Z</time>
      </trkpt>
      <trkpt lat="48.92026" lon="2.06401">
        <ele>48.19</ele>
        <time>2021-01-26T09:14:55Z</time>
      </trkpt>
      <trkpt lat="48.92027" lon="2.06401">
        <ele>47.24</ele>
        <time>2021-01-26T09:14:56Z</time>
      </trkpt>
      <trkpt lat="48.92028" lon="2.06401">
        <ele>47.51</ele>
        <time>2021-01-26T09:14:57Z</time>
      </trkpt>
      <trkpt lat="48.92052" lon="2.06402">
        <ele>47.3</ele>
        <time>2021-01-26T09:15:09Z</time>
      </trkpt>
      <trkpt lat="48.92071" lon="2.06403">
        <ele>47.33</ele>
        <time>2021-01-26T09:15:22Z</time>
      </trkpt>
      <trkpt lat="48.9209" lon="2.06404">
        <ele>46.83</ele>
        <time>2021-01-26T09:15:33Z</time>
      </trkpt>
      <trkpt lat="48.92091" lon="2.06404">
        <ele>46.85</ele>
        <time>2021-01-26T09:15:34Z</time>
      </trkpt>
      <trkpt lat="48.92093" lon="2.06404">
        <ele>46.96</ele>
        <time>2021-01-26T09:15:35Z</time>
      </trkpt>
      <trkpt lat="48.92096" lon="2.06403">
        <ele>47</ele>
        <time>2021-01-26T09:15:37Z</time>
      </trkpt>
      <trkpt lat="48.92102" lon="2.06404">
        <ele>46.44</ele>
        <time>2021-01-26T09:15:42Z</time>
      </trkpt>
      <trkpt lat="48.92104" lon="2.06404">
        <ele>46.38</ele>
        <time>2021-01-26T09:15:43Z</time>
      </trkpt>
      <trkpt lat="48.92105" lon="2.06404">
        <ele>46.58</ele>
        <time>2021-01-26T09:15:44Z</time>
      </trkpt>
      <trkpt lat="48.92112" lon="2.06407">
        <ele>46.8</ele>
        <time>2021-01-26T09:15:49Z</time>
      </trkpt>
      <trkpt lat="48.92127" lon="2.06408">
        <ele>45.74</ele>
        <time>2021-01-26T09:16:00Z</time>
      </trkpt>
      <trkpt lat="48.92131" lon="2.06408">
        <ele>46.36</ele>
        <time>2021-01-26T09:16:03Z</time>
      </trkpt>
      <trkpt lat="48.92133" lon="2.06408">
        <ele>45.53</ele>
        <time>2021-01-26T09:16:04Z</time>
      </trkpt>
      <trkpt lat="48.92134" lon="2.06409">
        <ele>46.34</ele>
        <time>2021-01-26T09:16:05Z</time>
      </trkpt>
      <trkpt lat="48.92151" lon="2.06411">
        <ele>45.47</ele>
        <time>2021-01-26T09:16:17Z</time>
      </trkpt>
      <trkpt lat="48.92166" lon="2.0641">
        <ele>44.58</ele>
        <time>2021-01-26T09:16:29Z</time>
      </trkpt>
      <trkpt lat="48.92178" lon="2.06408">
        <ele>43.29</ele>
        <time>2021-01-26T09:16:44Z</time>
      </trkpt>
      <trkpt lat="48.92188" lon="2.06392">
        <ele>42.63</ele>
        <time>2021-01-26T09:17:02Z</time>
      </trkpt>
      <trkpt lat="48.92189" lon="2.06391">
        <ele>42.52</ele>
        <time>2021-01-26T09:17:03Z</time>
      </trkpt>
      <trkpt lat="48.92201" lon="2.06363">
        <ele>42.71</ele>
        <time>2021-01-26T09:17:23Z</time>
      </trkpt>
      <trkpt lat="48.9221" lon="2.06346">
        <ele>42.04</ele>
        <time>2021-01-26T09:17:39Z</time>
      </trkpt>
      <trkpt lat="48.92215" lon="2.06326">
        <ele>41</ele>
        <time>2021-01-26T09:17:56Z</time>
      </trkpt>
      <trkpt lat="48.92223" lon="2.0629">
        <ele>39.95</ele>
        <time>2021-01-26T09:18:18Z</time>
      </trkpt>
      <trkpt lat="48.92241" lon="2.06271">
        <ele>39.08</ele>
        <time>2021-01-26T09:18:32Z</time>
      </trkpt>
      <trkpt lat="48.92256" lon="2.06257">
        <ele>38.82</ele>
        <time>2021-01-26T09:18:51Z</time>
      </trkpt>
      <trkpt lat="48.92256" lon="2.0625">
        <ele>38.76</ele>
        <time>2021-01-26T09:18:59Z</time>
      </trkpt>
      <trkpt lat="48.92258" lon="2.06243">
        <ele>39.09</ele>
        <time>2021-01-26T09:19:03Z</time>
      </trkpt>
      <trkpt lat="48.92264" lon="2.06221">
        <ele>38.7</ele>
        <time>2021-01-26T09:19:19Z</time>
      </trkpt>
      <trkpt lat="48.92264" lon="2.06219">
        <ele>38.56</ele>
        <time>2021-01-26T09:19:20Z</time>
      </trkpt>
      <trkpt lat="48.92268" lon="2.062">
        <ele>38.07</ele>
        <time>2021-01-26T09:19:32Z</time>
      </trkpt>
      <trkpt lat="48.92284" lon="2.06183">
        <ele>37.82</ele>
        <time>2021-01-26T09:19:48Z</time>
      </trkpt>
      <trkpt lat="48.92296" lon="2.06187">
        <ele>37.61</ele>
        <time>2021-01-26T09:19:56Z</time>
      </trkpt>
      <trkpt lat="48.92299" lon="2.06188">
        <ele>38.12</ele>
        <time>2021-01-26T09:19:57Z</time>
      </trkpt>
      <trkpt lat="48.92302" lon="2.06189">
        <ele>37.82</ele>
        <time>2021-01-26T09:19:58Z</time>
      </trkpt>
      <trkpt lat="48.92304" lon="2.06191">
        <ele>37.73</ele>
        <time>2021-01-26T09:19:59Z</time>
      </trkpt>
      <trkpt lat="48.92306" lon="2.06193">
        <ele>37.84</ele>
        <time>2021-01-26T09:20:00Z</time>
      </trkpt>
      <trkpt lat="48.92307" lon="2.06194">
        <ele>37.72</ele>
        <time>2021-01-26T09:20:01Z</time>
      </trkpt>
      <trkpt lat="48.92319" lon="2.0621">
        <ele>37.98</ele>
        <time>2021-01-26T09:20:14Z</time>
      </trkpt>
      <trkpt lat="48.9232" lon="2.06212">
        <ele>36.65</ele>
        <time>2021-01-26T09:20:15Z</time>
      </trkpt>
      <trkpt lat="48.9232" lon="2.06214">
        <ele>36.65</ele>
        <time>2021-01-26T09:20:16Z</time>
      </trkpt>
      <trkpt lat="48.92321" lon="2.06216">
        <ele>36.66</ele>
        <time>2021-01-26T09:20:17Z</time>
      </trkpt>
      <trkpt lat="48.92322" lon="2.06218">
        <ele>36.66</ele>
        <time>2021-01-26T09:20:18Z</time>
      </trkpt>
      <trkpt lat="48.92331" lon="2.06232">
        <ele>38.36</ele>
        <time>2021-01-26T09:20:27Z</time>
      </trkpt>
      <trkpt lat="48.92331" lon="2.06234">
        <ele>38.07</ele>
        <time>2021-01-26T09:20:28Z</time>
      </trkpt>
      <trkpt lat="48.92337" lon="2.06245">
        <ele>37.79</ele>
        <time>2021-01-26T09:20:40Z</time>
      </trkpt>
      <trkpt lat="48.9234" lon="2.0625">
        <ele>38.44</ele>
        <time>2021-01-26T09:20:44Z</time>
      </trkpt>
      <trkpt lat="48.92348" lon="2.06263">
        <ele>38.39</ele>
        <time>2021-01-26T09:20:54Z</time>
      </trkpt>
      <trkpt lat="48.9235" lon="2.06265">
        <ele>38.1</ele>
        <time>2021-01-26T09:20:55Z</time>
      </trkpt>
      <trkpt lat="48.92351" lon="2.06265">
        <ele>37.74</ele>
        <time>2021-01-26T09:20:56Z</time>
      </trkpt>
      <trkpt lat="48.92352" lon="2.06266">
        <ele>38.05</ele>
        <time>2021-01-26T09:20:57Z</time>
      </trkpt>
      <trkpt lat="48.92353" lon="2.06267">
        <ele>38.21</ele>
        <time>2021-01-26T09:20:58Z</time>
      </trkpt>
      <trkpt lat="48.92367" lon="2.06269">
        <ele>37.96</ele>
        <time>2021-01-26T09:21:10Z</time>
      </trkpt>
      <trkpt lat="48.92384" lon="2.0627">
        <ele>37.2</ele>
        <time>2021-01-26T09:21:23Z</time>
      </trkpt>
      <trkpt lat="48.92396" lon="2.06269">
        <ele>37.37</ele>
        <time>2021-01-26T09:21:33Z</time>
      </trkpt>
      <trkpt lat="48.92416" lon="2.06274">
        <ele>36.65</ele>
        <time>2021-01-26T09:21:49Z</time>
      </trkpt>
      <trkpt lat="48.92432" lon="2.06274">
        <ele>35.6</ele>
        <time>2021-01-26T09:22:04Z</time>
      </trkpt>
      <trkpt lat="48.92442" lon="2.06275">
        <ele>35.05</ele>
        <time>2021-01-26T09:22:13Z</time>
      </trkpt>
      <trkpt lat="48.92446" lon="2.06279">
        <ele>35.15</ele>
        <time>2021-01-26T09:22:17Z</time>
      </trkpt>
      <trkpt lat="48.92448" lon="2.0628">
        <ele>35.31</ele>
        <time>2021-01-26T09:22:18Z</time>
      </trkpt>
      <trkpt lat="48.92449" lon="2.06281">
        <ele>34.59</ele>
        <time>2021-01-26T09:22:19Z</time>
      </trkpt>
      <trkpt lat="48.9246" lon="2.063">
        <ele>35.55</ele>
        <time>2021-01-26T09:22:30Z</time>
      </trkpt>
      <trkpt lat="48.92463" lon="2.06308">
        <ele>35.53</ele>
        <time>2021-01-26T09:22:34Z</time>
      </trkpt>
      <trkpt lat="48.92472" lon="2.06333">
        <ele>35.25</ele>
        <time>2021-01-26T09:22:50Z</time>
      </trkpt>
      <trkpt lat="48.92483" lon="2.06351">
        <ele>35.51</ele>
        <time>2021-01-26T09:23:00Z</time>
      </trkpt>
      <trkpt lat="48.92485" lon="2.06357">
        <ele>35.11</ele>
        <time>2021-01-26T09:23:03Z</time>
      </trkpt>
      <trkpt lat="48.92487" lon="2.0636">
        <ele>35.57</ele>
        <time>2021-01-26T09:23:05Z</time>
      </trkpt>
      <trkpt lat="48.92489" lon="2.06363">
        <ele>35.48</ele>
        <time>2021-01-26T09:23:07Z</time>
      </trkpt>
      <trkpt lat="48.92498" lon="2.06386">
        <ele>35.49</ele>
        <time>2021-01-26T09:23:20Z</time>
      </trkpt>
      <trkpt lat="48.925" lon="2.0639">
        <ele>35.72</ele>
        <time>2021-01-26T09:23:23Z</time>
      </trkpt>
      <trkpt lat="48.92511" lon="2.06424">
        <ele>35.94</ele>
        <time>2021-01-26T09:23:38Z</time>
      </trkpt>
      <trkpt lat="48.92521" lon="2.06446">
        <ele>36.24</ele>
        <time>2021-01-26T09:23:51Z</time>
      </trkpt>
      <trkpt lat="48.92529" lon="2.06467">
        <ele>36.67</ele>
        <time>2021-01-26T09:24:02Z</time>
      </trkpt>
      <trkpt lat="48.92539" lon="2.06492">
        <ele>36.41</ele>
        <time>2021-01-26T09:24:17Z</time>
      </trkpt>
      <trkpt lat="48.92544" lon="2.06524">
        <ele>36.66</ele>
        <time>2021-01-26T09:24:32Z</time>
      </trkpt>
      <trkpt lat="48.92548" lon="2.06532">
        <ele>36.36</ele>
        <time>2021-01-26T09:24:46Z</time>
      </trkpt>
      <trkpt lat="48.92546" lon="2.06529">
        <ele>36.68</ele>
        <time>2021-01-26T09:25:04Z</time>
      </trkpt>
      <trkpt lat="48.92543" lon="2.06522">
        <ele>36.5</ele>
        <time>2021-01-26T09:25:22Z</time>
      </trkpt>
      <trkpt lat="48.92549" lon="2.06506">
        <ele>36.15</ele>
        <time>2021-01-26T09:25:32Z</time>
      </trkpt>
      <trkpt lat="48.92551" lon="2.06501">
        <ele>35.96</ele>
        <time>2021-01-26T09:25:35Z</time>
      </trkpt>
      <trkpt lat="48.92557" lon="2.06482">
        <ele>34.3</ele>
        <time>2021-01-26T09:25:49Z</time>
      </trkpt>
      <trkpt lat="48.92564" lon="2.06451">
        <ele>33.16</ele>
        <time>2021-01-26T09:26:07Z</time>
      </trkpt>
      <trkpt lat="48.92564" lon="2.0645">
        <ele>33.01</ele>
        <time>2021-01-26T09:26:08Z</time>
      </trkpt>
      <trkpt lat="48.92574" lon="2.06422">
        <ele>33.69</ele>
        <time>2021-01-26T09:26:21Z</time>
      </trkpt>
      <trkpt lat="48.9258" lon="2.06411">
        <ele>33.81</ele>
        <time>2021-01-26T09:26:29Z</time>
      </trkpt>
      <trkpt lat="48.92585" lon="2.064">
        <ele>33.99</ele>
        <time>2021-01-26T09:26:37Z</time>
      </trkpt>
      <trkpt lat="48.92591" lon="2.06382">
        <ele>34.46</ele>
        <time>2021-01-26T09:26:46Z</time>
      </trkpt>
      <trkpt lat="48.92595" lon="2.06376">
        <ele>34.89</ele>
        <time>2021-01-26T09:26:50Z</time>
      </trkpt>
      <trkpt lat="48.92611" lon="2.06351">
        <ele>35.18</ele>
        <time>2021-01-26T09:27:07Z</time>
      </trkpt>
      <trkpt lat="48.92613" lon="2.06346">
        <ele>35.34</ele>
        <time>2021-01-26T09:27:10Z</time>
      </trkpt>
      <trkpt lat="48.92617" lon="2.06342">
        <ele>35.73</ele>
        <time>2021-01-26T09:27:13Z</time>
      </trkpt>
      <trkpt lat="48.92626" lon="2.06318">
        <ele>35.97</ele>
        <time>2021-01-26T09:27:27Z</time>
      </trkpt>
      <trkpt lat="48.92635" lon="2.06298">
        <ele>36.65</ele>
        <time>2021-01-26T09:27:42Z</time>
      </trkpt>
      <trkpt lat="48.92636" lon="2.06296">
        <ele>36.68</ele>
        <time>2021-01-26T09:27:43Z</time>
      </trkpt>
      <trkpt lat="48.92647" lon="2.06277">
        <ele>36.99</ele>
        <time>2021-01-26T09:27:53Z</time>
      </trkpt>
      <trkpt lat="48.9265" lon="2.06272">
        <ele>37.3</ele>
        <time>2021-01-26T09:27:56Z</time>
      </trkpt>
      <trkpt lat="48.92659" lon="2.06252">
        <ele>37.14</ele>
        <time>2021-01-26T09:28:08Z</time>
      </trkpt>
      <trkpt lat="48.92661" lon="2.06246">
        <ele>37.53</ele>
        <time>2021-01-26T09:28:11Z</time>
      </trkpt>
      <trkpt lat="48.92668" lon="2.0623">
        <ele>37.51</ele>
        <time>2021-01-26T09:28:23Z</time>
      </trkpt>
      <trkpt lat="48.92678" lon="2.06211">
        <ele>37.48</ele>
        <time>2021-01-26T09:28:34Z</time>
      </trkpt>
      <trkpt lat="48.92687" lon="2.06185">
        <ele>37.6</ele>
        <time>2021-01-26T09:28:49Z</time>
      </trkpt>
      <trkpt lat="48.92693" lon="2.06175">
        <ele>37.79</ele>
        <time>2021-01-26T09:28:54Z</time>
      </trkpt>
      <trkpt lat="48.92705" lon="2.06159">
        <ele>38.73</ele>
        <time>2021-01-26T09:29:06Z</time>
      </trkpt>
      <trkpt lat="48.92721" lon="2.06138">
        <ele>38.2</ele>
        <time>2021-01-26T09:29:21Z</time>
      </trkpt>
      <trkpt lat="48.92727" lon="2.06119">
        <ele>37.76</ele>
        <time>2021-01-26T09:29:32Z</time>
      </trkpt>
      <trkpt lat="48.92731" lon="2.06108">
        <ele>37.71</ele>
        <time>2021-01-26T09:29:37Z</time>
      </trkpt>
      <trkpt lat="48.92746" lon="2.06088">
        <ele>37.91</ele>
        <time>2021-01-26T09:29:50Z</time>
      </trkpt>
      <trkpt lat="48.92749" lon="2.06081">
        <ele>37.8</ele>
        <time>2021-01-26T09:29:56Z</time>
      </trkpt>
      <trkpt lat="48.92757" lon="2.06076">
        <ele>36.84</ele>
        <time>2021-01-26T09:30:14Z</time>
      </trkpt>
      <trkpt lat="48.92777" lon="2.06081">
        <ele>36.43</ele>
        <time>2021-01-26T09:30:29Z</time>
      </trkpt>
      <trkpt lat="48.92776" lon="2.06076">
        <ele>36.2</ele>
        <time>2021-01-26T09:30:53Z</time>
      </trkpt>
      <trkpt lat="48.92778" lon="2.06076">
        <ele>36.08</ele>
        <time>2021-01-26T09:30:57Z</time>
      </trkpt>
      <trkpt lat="48.92786" lon="2.06073">
        <ele>36.07</ele>
        <time>2021-01-26T09:31:26Z</time>
      </trkpt>
      <trkpt lat="48.92784" lon="2.06077">
        <ele>35.8</ele>
        <time>2021-01-26T09:31:52Z</time>
      </trkpt>
      <trkpt lat="48.92789" lon="2.06078">
        <ele>35.77</ele>
        <time>2021-01-26T09:32:17Z</time>
      </trkpt>
      <trkpt lat="48.92793" lon="2.06082">
        <ele>35.19</ele>
        <time>2021-01-26T09:32:20Z</time>
      </trkpt>
      <trkpt lat="48.92805" lon="2.06092">
        <ele>35.4</ele>
        <time>2021-01-26T09:32:28Z</time>
      </trkpt>
      <trkpt lat="48.92816" lon="2.06103">
        <ele>35.51</ele>
        <time>2021-01-26T09:32:35Z</time>
      </trkpt>
      <trkpt lat="48.92832" lon="2.06117">
        <ele>35.4</ele>
        <time>2021-01-26T09:32:47Z</time>
      </trkpt>
      <trkpt lat="48.92833" lon="2.0612">
        <ele>35.19</ele>
        <time>2021-01-26T09:32:49Z</time>
      </trkpt>
      <trkpt lat="48.92837" lon="2.06125">
        <ele>35.41</ele>
        <time>2021-01-26T09:32:52Z</time>
      </trkpt>
      <trkpt lat="48.92845" lon="2.06136">
        <ele>35.25</ele>
        <time>2021-01-26T09:33:07Z</time>
      </trkpt>
      <trkpt lat="48.92847" lon="2.06138">
        <ele>34.98</ele>
        <time>2021-01-26T09:33:09Z</time>
      </trkpt>
      <trkpt lat="48.92855" lon="2.0616">
        <ele>35.35</ele>
        <time>2021-01-26T09:33:22Z</time>
      </trkpt>
      <trkpt lat="48.92861" lon="2.06181">
        <ele>35.32</ele>
        <time>2021-01-26T09:33:33Z</time>
      </trkpt>
      <trkpt lat="48.92862" lon="2.06186">
        <ele>35.82</ele>
        <time>2021-01-26T09:33:35Z</time>
      </trkpt>
      <trkpt lat="48.92872" lon="2.06198">
        <ele>35.15</ele>
        <time>2021-01-26T09:33:48Z</time>
      </trkpt>
      <trkpt lat="48.92876" lon="2.06201">
        <ele>35.25</ele>
        <time>2021-01-26T09:33:51Z</time>
      </trkpt>
      <trkpt lat="48.92893" lon="2.06215">
        <ele>35.44</ele>
        <time>2021-01-26T09:34:06Z</time>
      </trkpt>
      <trkpt lat="48.92911" lon="2.06231">
        <ele>35.5</ele>
        <time>2021-01-26T09:34:20Z</time>
      </trkpt>
      <trkpt lat="48.92916" lon="2.06236">
        <ele>35.28</ele>
        <time>2021-01-26T09:34:25Z</time>
      </trkpt>
      <trkpt lat="48.9292" lon="2.06242">
        <ele>35.07</ele>
        <time>2021-01-26T09:34:29Z</time>
      </trkpt>
      <trkpt lat="48.92932" lon="2.06259">
        <ele>35.45</ele>
        <time>2021-01-26T09:34:41Z</time>
      </trkpt>
      <trkpt lat="48.92936" lon="2.06263">
        <ele>35.21</ele>
        <time>2021-01-26T09:34:45Z</time>
      </trkpt>
      <trkpt lat="48.92953" lon="2.06278">
        <ele>35.03</ele>
        <time>2021-01-26T09:34:59Z</time>
      </trkpt>
      <trkpt lat="48.92955" lon="2.0628">
        <ele>34.57</ele>
        <time>2021-01-26T09:35:01Z</time>
      </trkpt>
      <trkpt lat="48.92959" lon="2.06283">
        <ele>34.65</ele>
        <time>2021-01-26T09:35:04Z</time>
      </trkpt>
      <trkpt lat="48.92977" lon="2.06301">
        <ele>35.31</ele>
        <time>2021-01-26T09:35:21Z</time>
      </trkpt>
      <trkpt lat="48.92998" lon="2.06317">
        <ele>35.6</ele>
        <time>2021-01-26T09:35:36Z</time>
      </trkpt>
      <trkpt lat="48.93016" lon="2.06336">
        <ele>35.26</ele>
        <time>2021-01-26T09:35:51Z</time>
      </trkpt>
      <trkpt lat="48.93026" lon="2.06347">
        <ele>34.87</ele>
        <time>2021-01-26T09:36:00Z</time>
      </trkpt>
      <trkpt lat="48.93044" lon="2.06363">
        <ele>34.94</ele>
        <time>2021-01-26T09:36:14Z</time>
      </trkpt>
      <trkpt lat="48.93061" lon="2.06376">
        <ele>35.09</ele>
        <time>2021-01-26T09:36:28Z</time>
      </trkpt>
      <trkpt lat="48.93078" lon="2.064">
        <ele>34.85</ele>
        <time>2021-01-26T09:36:44Z</time>
      </trkpt>
      <trkpt lat="48.93091" lon="2.06412">
        <ele>34.51</ele>
        <time>2021-01-26T09:36:56Z</time>
      </trkpt>
      <trkpt lat="48.93093" lon="2.06416">
        <ele>36.26</ele>
        <time>2021-01-26T09:36:58Z</time>
      </trkpt>
      <trkpt lat="48.93103" lon="2.06424">
        <ele>35.15</ele>
        <time>2021-01-26T09:37:07Z</time>
      </trkpt>
      <trkpt lat="48.93116" lon="2.0644">
        <ele>35.84</ele>
        <time>2021-01-26T09:37:23Z</time>
      </trkpt>
      <trkpt lat="48.93123" lon="2.06448">
        <ele>34.76</ele>
        <time>2021-01-26T09:37:30Z</time>
      </trkpt>
      <trkpt lat="48.93125" lon="2.0645">
        <ele>35.28</ele>
        <time>2021-01-26T09:37:32Z</time>
      </trkpt>
      <trkpt lat="48.93144" lon="2.06468">
        <ele>35.17</ele>
        <time>2021-01-26T09:37:48Z</time>
      </trkpt>
      <trkpt lat="48.93146" lon="2.0647">
        <ele>35.18</ele>
        <time>2021-01-26T09:37:50Z</time>
      </trkpt>
      <trkpt lat="48.93154" lon="2.06481">
        <ele>35.44</ele>
        <time>2021-01-26T09:37:58Z</time>
      </trkpt>
      <trkpt lat="48.93163" lon="2.06497">
        <ele>34.71</ele>
        <time>2021-01-26T09:38:09Z</time>
      </trkpt>
      <trkpt lat="48.93169" lon="2.06511">
        <ele>35.12</ele>
        <time>2021-01-26T09:38:22Z</time>
      </trkpt>
      <trkpt lat="48.93167" lon="2.06513">
        <ele>35.79</ele>
        <time>2021-01-26T09:38:53Z</time>
      </trkpt>
      <trkpt lat="48.93168" lon="2.06514">
        <ele>35.26</ele>
        <time>2021-01-26T09:39:19Z</time>
      </trkpt>
      <trkpt lat="48.93169" lon="2.06515">
        <ele>35.53</ele>
        <time>2021-01-26T09:39:43Z</time>
      </trkpt>
      <trkpt lat="48.93171" lon="2.06516">
        <ele>35.13</ele>
        <time>2021-01-26T09:40:04Z</time>
      </trkpt>
      <trkpt lat="48.93172" lon="2.06514">
        <ele>35.19</ele>
        <time>2021-01-26T09:40:38Z</time>
      </trkpt>
      <trkpt lat="48.93171" lon="2.06516">
        <ele>36.08</ele>
        <time>2021-01-26T09:40:58Z</time>
      </trkpt>
      <trkpt lat="48.93175" lon="2.06514">
        <ele>35.63</ele>
        <time>2021-01-26T09:41:21Z</time>
      </trkpt>
      <trkpt lat="48.93178" lon="2.06512">
        <ele>36.91</ele>
        <time>2021-01-26T09:41:48Z</time>
      </trkpt>
      <trkpt lat="48.93177" lon="2.0651">
        <ele>37.3</ele>
        <time>2021-01-26T09:42:15Z</time>
      </trkpt>
      <trkpt lat="48.93179" lon="2.06509">
        <ele>37.71</ele>
        <time>2021-01-26T09:42:34Z</time>
      </trkpt>
      <trkpt lat="48.93188" lon="2.06524">
        <ele>36.62</ele>
        <time>2021-01-26T09:42:55Z</time>
      </trkpt>
      <trkpt lat="48.93201" lon="2.06544">
        <ele>37.11</ele>
        <time>2021-01-26T09:43:10Z</time>
      </trkpt>
      <trkpt lat="48.93221" lon="2.06574">
        <ele>37.98</ele>
        <time>2021-01-26T09:43:29Z</time>
      </trkpt>
      <trkpt lat="48.93222" lon="2.06575">
        <ele>38.53</ele>
        <time>2021-01-26T09:43:30Z</time>
      </trkpt>
      <trkpt lat="48.93229" lon="2.06587">
        <ele>37.02</ele>
        <time>2021-01-26T09:43:39Z</time>
      </trkpt>
      <trkpt lat="48.93228" lon="2.06592">
        <ele>37.5</ele>
        <time>2021-01-26T09:43:42Z</time>
      </trkpt>
      <trkpt lat="48.93228" lon="2.066">
        <ele>37.6</ele>
        <time>2021-01-26T09:43:45Z</time>
      </trkpt>
      <trkpt lat="48.93226" lon="2.06613">
        <ele>37.29</ele>
        <time>2021-01-26T09:43:51Z</time>
      </trkpt>
      <trkpt lat="48.93225" lon="2.06635">
        <ele>37.76</ele>
        <time>2021-01-26T09:44:03Z</time>
      </trkpt>
      <trkpt lat="48.93226" lon="2.06642">
        <ele>37.05</ele>
        <time>2021-01-26T09:44:07Z</time>
      </trkpt>
      <trkpt lat="48.93227" lon="2.06651">
        <ele>35.45</ele>
        <time>2021-01-26T09:44:10Z</time>
      </trkpt>
      <trkpt lat="48.93228" lon="2.06654">
        <ele>35.45</ele>
        <time>2021-01-26T09:44:11Z</time>
      </trkpt>
      <trkpt lat="48.93229" lon="2.06663">
        <ele>36.88</ele>
        <time>2021-01-26T09:44:15Z</time>
      </trkpt>
      <trkpt lat="48.9323" lon="2.06664">
        <ele>36.95</ele>
        <time>2021-01-26T09:44:16Z</time>
      </trkpt>
      <trkpt lat="48.93233" lon="2.0667">
        <ele>36.83</ele>
        <time>2021-01-26T09:44:19Z</time>
      </trkpt>
      <trkpt lat="48.93238" lon="2.06693">
        <ele>36.33</ele>
        <time>2021-01-26T09:44:32Z</time>
      </trkpt>
      <trkpt lat="48.93243" lon="2.06713">
        <ele>36.35</ele>
        <time>2021-01-26T09:44:40Z</time>
      </trkpt>
      <trkpt lat="48.93257" lon="2.06738">
        <ele>36.21</ele>
        <time>2021-01-26T09:44:54Z</time>
      </trkpt>
      <trkpt lat="48.93275" lon="2.06761">
        <ele>36.9</ele>
        <time>2021-01-26T09:45:12Z</time>
      </trkpt>
      <trkpt lat="48.93292" lon="2.06775">
        <ele>36.1</ele>
        <time>2021-01-26T09:45:27Z</time>
      </trkpt>
      <trkpt lat="48.93314" lon="2.06787">
        <ele>36.03</ele>
        <time>2021-01-26T09:45:44Z</time>
      </trkpt>
      <trkpt lat="48.93332" lon="2.06803">
        <ele>36.73</ele>
        <time>2021-01-26T09:45:57Z</time>
      </trkpt>
      <trkpt lat="48.93338" lon="2.06814">
        <ele>36.52</ele>
        <time>2021-01-26T09:46:05Z</time>
      </trkpt>
      <trkpt lat="48.93345" lon="2.06824">
        <ele>36.1</ele>
        <time>2021-01-26T09:46:10Z</time>
      </trkpt>
      <trkpt lat="48.93367" lon="2.06846">
        <ele>35.74</ele>
        <time>2021-01-26T09:46:28Z</time>
      </trkpt>
      <trkpt lat="48.93379" lon="2.06863">
        <ele>35</ele>
        <time>2021-01-26T09:46:38Z</time>
      </trkpt>
      <trkpt lat="48.93394" lon="2.06885">
        <ele>34.81</ele>
        <time>2021-01-26T09:46:50Z</time>
      </trkpt>
      <trkpt lat="48.93397" lon="2.06889">
        <ele>35.51</ele>
        <time>2021-01-26T09:46:53Z</time>
      </trkpt>
      <trkpt lat="48.93405" lon="2.06899">
        <ele>35.14</ele>
        <time>2021-01-26T09:47:01Z</time>
      </trkpt>
      <trkpt lat="48.93407" lon="2.06901">
        <ele>34.98</ele>
        <time>2021-01-26T09:47:03Z</time>
      </trkpt>
      <trkpt lat="48.93422" lon="2.06909">
        <ele>35.3</ele>
        <time>2021-01-26T09:47:16Z</time>
      </trkpt>
      <trkpt lat="48.93437" lon="2.06926">
        <ele>34.82</ele>
        <time>2021-01-26T09:47:28Z</time>
      </trkpt>
      <trkpt lat="48.93439" lon="2.06928">
        <ele>34.64</ele>
        <time>2021-01-26T09:47:46Z</time>
      </trkpt>
      <trkpt lat="48.9344" lon="2.06931">
        <ele>34.95</ele>
        <time>2021-01-26T09:48:08Z</time>
      </trkpt>
      <trkpt lat="48.93455" lon="2.06951">
        <ele>35.32</ele>
        <time>2021-01-26T09:48:26Z</time>
      </trkpt>
      <trkpt lat="48.93466" lon="2.06959">
        <ele>34.24</ele>
        <time>2021-01-26T09:48:34Z</time>
      </trkpt>
      <trkpt lat="48.9347" lon="2.0696">
        <ele>34.67</ele>
        <time>2021-01-26T09:48:37Z</time>
      </trkpt>
      <trkpt lat="48.93493" lon="2.06976">
        <ele>34.52</ele>
        <time>2021-01-26T09:48:52Z</time>
      </trkpt>
      <trkpt lat="48.93512" lon="2.0699">
        <ele>34.93</ele>
        <time>2021-01-26T09:49:08Z</time>
      </trkpt>
      <trkpt lat="48.93531" lon="2.06999">
        <ele>34.99</ele>
        <time>2021-01-26T09:49:23Z</time>
      </trkpt>
      <trkpt lat="48.93548" lon="2.07006">
        <ele>34.83</ele>
        <time>2021-01-26T09:49:42Z</time>
      </trkpt>
      <trkpt lat="48.93553" lon="2.07011">
        <ele>34.89</ele>
        <time>2021-01-26T09:50:04Z</time>
      </trkpt>
      <trkpt lat="48.93555" lon="2.07015">
        <ele>35.41</ele>
        <time>2021-01-26T09:50:07Z</time>
      </trkpt>
      <trkpt lat="48.93569" lon="2.07034">
        <ele>35.18</ele>
        <time>2021-01-26T09:50:21Z</time>
      </trkpt>
      <trkpt lat="48.93579" lon="2.07052">
        <ele>35.37</ele>
        <time>2021-01-26T09:50:33Z</time>
      </trkpt>
      <trkpt lat="48.93585" lon="2.07062">
        <ele>34.19</ele>
        <time>2021-01-26T09:50:40Z</time>
      </trkpt>
      <trkpt lat="48.93588" lon="2.07066">
        <ele>35.04</ele>
        <time>2021-01-26T09:50:43Z</time>
      </trkpt>
      <trkpt lat="48.93606" lon="2.07086">
        <ele>35.08</ele>
        <time>2021-01-26T09:50:59Z</time>
      </trkpt>
      <trkpt lat="48.93619" lon="2.07107">
        <ele>34.88</ele>
        <time>2021-01-26T09:51:13Z</time>
      </trkpt>
      <trkpt lat="48.9363" lon="2.07129">
        <ele>36.03</ele>
        <time>2021-01-26T09:51:25Z</time>
      </trkpt>
      <trkpt lat="48.93642" lon="2.07135">
        <ele>34.64</ele>
        <time>2021-01-26T09:51:34Z</time>
      </trkpt>
      <trkpt lat="48.93647" lon="2.0714">
        <ele>34.5</ele>
        <time>2021-01-26T09:51:39Z</time>
      </trkpt>
      <trkpt lat="48.93664" lon="2.07153">
        <ele>34.28</ele>
        <time>2021-01-26T09:51:52Z</time>
      </trkpt>
      <trkpt lat="48.93681" lon="2.07172">
        <ele>34.66</ele>
        <time>2021-01-26T09:52:08Z</time>
      </trkpt>
      <trkpt lat="48.93696" lon="2.0718">
        <ele>34.51</ele>
        <time>2021-01-26T09:52:18Z</time>
      </trkpt>
      <trkpt lat="48.93699" lon="2.07182">
        <ele>34.01</ele>
        <time>2021-01-26T09:52:20Z</time>
      </trkpt>
      <trkpt lat="48.93708" lon="2.07185">
        <ele>33.95</ele>
        <time>2021-01-26T09:52:25Z</time>
      </trkpt>
      <trkpt lat="48.93719" lon="2.07192">
        <ele>33.92</ele>
        <time>2021-01-26T09:52:33Z</time>
      </trkpt>
      <trkpt lat="48.93729" lon="2.07212">
        <ele>34.31</ele>
        <time>2021-01-26T09:52:45Z</time>
      </trkpt>
      <trkpt lat="48.9374" lon="2.07242">
        <ele>33.57</ele>
        <time>2021-01-26T09:52:59Z</time>
      </trkpt>
      <trkpt lat="48.9374" lon="2.07253">
        <ele>33.2</ele>
        <time>2021-01-26T09:53:14Z</time>
      </trkpt>
      <trkpt lat="48.93742" lon="2.07257">
        <ele>33.39</ele>
        <time>2021-01-26T09:53:42Z</time>
      </trkpt>
      <trkpt lat="48.9374" lon="2.07251">
        <ele>33.18</ele>
        <time>2021-01-26T09:54:11Z</time>
      </trkpt>
      <trkpt lat="48.9374" lon="2.07248">
        <ele>33.56</ele>
        <time>2021-01-26T09:54:37Z</time>
      </trkpt>
      <trkpt lat="48.93733" lon="2.07267">
        <ele>32.59</ele>
        <time>2021-01-26T09:54:55Z</time>
      </trkpt>
      <trkpt lat="48.93715" lon="2.07301">
        <ele>30.85</ele>
        <time>2021-01-26T09:55:17Z</time>
      </trkpt>
      <trkpt lat="48.93696" lon="2.07331">
        <ele>30.04</ele>
        <time>2021-01-26T09:55:37Z</time>
      </trkpt>
      <trkpt lat="48.93684" lon="2.07348">
        <ele>28.77</ele>
        <time>2021-01-26T09:55:48Z</time>
      </trkpt>
      <trkpt lat="48.93665" lon="2.0737">
        <ele>29.12</ele>
        <time>2021-01-26T09:56:02Z</time>
      </trkpt>
      <trkpt lat="48.93663" lon="2.07375">
        <ele>27.37</ele>
        <time>2021-01-26T09:56:03Z</time>
      </trkpt>
      <trkpt lat="48.93652" lon="2.07395">
        <ele>27.34</ele>
        <time>2021-01-26T09:56:14Z</time>
      </trkpt>
      <trkpt lat="48.9365" lon="2.07399">
        <ele>26.96</ele>
        <time>2021-01-26T09:56:16Z</time>
      </trkpt>
      <trkpt lat="48.93638" lon="2.07415">
        <ele>26.98</ele>
        <time>2021-01-26T09:56:27Z</time>
      </trkpt>
      <trkpt lat="48.93624" lon="2.07434">
        <ele>26.96</ele>
        <time>2021-01-26T09:56:39Z</time>
      </trkpt>
      <trkpt lat="48.9362" lon="2.07438">
        <ele>26.54</ele>
        <time>2021-01-26T09:56:42Z</time>
      </trkpt>
      <trkpt lat="48.93618" lon="2.07439">
        <ele>25.96</ele>
        <time>2021-01-26T09:56:44Z</time>
      </trkpt>
      <trkpt lat="48.93615" lon="2.07443">
        <ele>26.79</ele>
        <time>2021-01-26T09:56:59Z</time>
      </trkpt>
      <trkpt lat="48.93617" lon="2.07446">
        <ele>26.41</ele>
        <time>2021-01-26T09:57:15Z</time>
      </trkpt>
      <trkpt lat="48.93615" lon="2.07446">
        <ele>26.63</ele>
        <time>2021-01-26T09:57:37Z</time>
      </trkpt>
      <trkpt lat="48.93613" lon="2.07447">
        <ele>26.96</ele>
        <time>2021-01-26T09:57:50Z</time>
      </trkpt>
      <trkpt lat="48.93611" lon="2.07446">
        <ele>26.93</ele>
        <time>2021-01-26T09:57:52Z</time>
      </trkpt>
      <trkpt lat="48.93594" lon="2.07436">
        <ele>26.99</ele>
        <time>2021-01-26T09:58:06Z</time>
      </trkpt>
      <trkpt lat="48.9359" lon="2.07435">
        <ele>27.55</ele>
        <time>2021-01-26T09:58:09Z</time>
      </trkpt>
      <trkpt lat="48.9357" lon="2.07429">
        <ele>27.01</ele>
        <time>2021-01-26T09:58:24Z</time>
      </trkpt>
      <trkpt lat="48.93558" lon="2.07425">
        <ele>26.43</ele>
        <time>2021-01-26T09:58:34Z</time>
      </trkpt>
      <trkpt lat="48.93555" lon="2.07423">
        <ele>26.59</ele>
        <time>2021-01-26T09:58:36Z</time>
      </trkpt>
      <trkpt lat="48.9354" lon="2.07414">
        <ele>26.56</ele>
        <time>2021-01-26T09:58:46Z</time>
      </trkpt>
      <trkpt lat="48.93517" lon="2.07406">
        <ele>25.97</ele>
        <time>2021-01-26T09:59:00Z</time>
      </trkpt>
      <trkpt lat="48.93496" lon="2.07398">
        <ele>25.68</ele>
        <time>2021-01-26T09:59:17Z</time>
      </trkpt>
      <trkpt lat="48.93492" lon="2.07396">
        <ele>25.76</ele>
        <time>2021-01-26T09:59:20Z</time>
      </trkpt>
      <trkpt lat="48.93478" lon="2.07388">
        <ele>25.46</ele>
        <time>2021-01-26T09:59:32Z</time>
      </trkpt>
      <trkpt lat="48.93468" lon="2.07382">
        <ele>24.76</ele>
        <time>2021-01-26T09:59:39Z</time>
      </trkpt>
      <trkpt lat="48.93465" lon="2.0738">
        <ele>24.33</ele>
        <time>2021-01-26T09:59:41Z</time>
      </trkpt>
      <trkpt lat="48.93445" lon="2.07377">
        <ele>24.09</ele>
        <time>2021-01-26T09:59:53Z</time>
      </trkpt>
      <trkpt lat="48.93438" lon="2.07376">
        <ele>23.82</ele>
        <time>2021-01-26T09:59:57Z</time>
      </trkpt>
      <trkpt lat="48.93422" lon="2.07368">
        <ele>23.46</ele>
        <time>2021-01-26T10:00:09Z</time>
      </trkpt>
      <trkpt lat="48.93405" lon="2.07362">
        <ele>23.31</ele>
        <time>2021-01-26T10:00:20Z</time>
      </trkpt>
      <trkpt lat="48.93389" lon="2.0736">
        <ele>23.21</ele>
        <time>2021-01-26T10:00:33Z</time>
      </trkpt>
      <trkpt lat="48.9338" lon="2.07356">
        <ele>23.4</ele>
        <time>2021-01-26T10:00:40Z</time>
      </trkpt>
      <trkpt lat="48.93375" lon="2.07354">
        <ele>23.29</ele>
        <time>2021-01-26T10:00:42Z</time>
      </trkpt>
      <trkpt lat="48.93365" lon="2.07352">
        <ele>24.04</ele>
        <time>2021-01-26T10:00:48Z</time>
      </trkpt>
      <trkpt lat="48.93359" lon="2.07348">
        <ele>23.97</ele>
        <time>2021-01-26T10:00:54Z</time>
      </trkpt>
      <trkpt lat="48.93357" lon="2.07341">
        <ele>23.14</ele>
        <time>2021-01-26T10:01:11Z</time>
      </trkpt>
      <trkpt lat="48.93356" lon="2.07336">
        <ele>23.25</ele>
        <time>2021-01-26T10:01:32Z</time>
      </trkpt>
      <trkpt lat="48.9336" lon="2.07331">
        <ele>23.57</ele>
        <time>2021-01-26T10:01:37Z</time>
      </trkpt>
      <trkpt lat="48.93361" lon="2.07332">
        <ele>23.63</ele>
        <time>2021-01-26T10:01:43Z</time>
      </trkpt>
      <trkpt lat="48.93347" lon="2.07337">
        <ele>23.69</ele>
        <time>2021-01-26T10:01:59Z</time>
      </trkpt>
      <trkpt lat="48.93329" lon="2.07335">
        <ele>25.4</ele>
        <time>2021-01-26T10:02:14Z</time>
      </trkpt>
      <trkpt lat="48.933" lon="2.0733">
        <ele>26.85</ele>
        <time>2021-01-26T10:02:33Z</time>
      </trkpt>
      <trkpt lat="48.9329" lon="2.07328">
        <ele>27.56</ele>
        <time>2021-01-26T10:02:40Z</time>
      </trkpt>
      <trkpt lat="48.93269" lon="2.07323">
        <ele>28.47</ele>
        <time>2021-01-26T10:02:55Z</time>
      </trkpt>
      <trkpt lat="48.93265" lon="2.07323">
        <ele>28.58</ele>
        <time>2021-01-26T10:02:57Z</time>
      </trkpt>
      <trkpt lat="48.93251" lon="2.07322">
        <ele>29.01</ele>
        <time>2021-01-26T10:03:06Z</time>
      </trkpt>
      <trkpt lat="48.93237" lon="2.0732">
        <ele>29.54</ele>
        <time>2021-01-26T10:03:15Z</time>
      </trkpt>
      <trkpt lat="48.93222" lon="2.07317">
        <ele>29.85</ele>
        <time>2021-01-26T10:03:25Z</time>
      </trkpt>
      <trkpt lat="48.93211" lon="2.07313">
        <ele>30.36</ele>
        <time>2021-01-26T10:03:36Z</time>
      </trkpt>
      <trkpt lat="48.93207" lon="2.07311">
        <ele>31.06</ele>
        <time>2021-01-26T10:03:39Z</time>
      </trkpt>
      <trkpt lat="48.93191" lon="2.07309">
        <ele>31.46</ele>
        <time>2021-01-26T10:03:48Z</time>
      </trkpt>
      <trkpt lat="48.93188" lon="2.07307">
        <ele>31.74</ele>
        <time>2021-01-26T10:03:51Z</time>
      </trkpt>
      <trkpt lat="48.93175" lon="2.07305">
        <ele>32.02</ele>
        <time>2021-01-26T10:04:03Z</time>
      </trkpt>
      <trkpt lat="48.93169" lon="2.07303">
        <ele>32.38</ele>
        <time>2021-01-26T10:04:07Z</time>
      </trkpt>
      <trkpt lat="48.93153" lon="2.07297">
        <ele>33.19</ele>
        <time>2021-01-26T10:04:19Z</time>
      </trkpt>
      <trkpt lat="48.9315" lon="2.07298">
        <ele>33.2</ele>
        <time>2021-01-26T10:04:21Z</time>
      </trkpt>
      <trkpt lat="48.93145" lon="2.07297">
        <ele>33.02</ele>
        <time>2021-01-26T10:04:25Z</time>
      </trkpt>
      <trkpt lat="48.93119" lon="2.07291">
        <ele>34.56</ele>
        <time>2021-01-26T10:04:42Z</time>
      </trkpt>
      <trkpt lat="48.93113" lon="2.07288">
        <ele>34.38</ele>
        <time>2021-01-26T10:04:47Z</time>
      </trkpt>
      <trkpt lat="48.93098" lon="2.07288">
        <ele>34.94</ele>
        <time>2021-01-26T10:04:58Z</time>
      </trkpt>
      <trkpt lat="48.93081" lon="2.07284">
        <ele>35.5</ele>
        <time>2021-01-26T10:05:09Z</time>
      </trkpt>
      <trkpt lat="48.93077" lon="2.07284">
        <ele>35.02</ele>
        <time>2021-01-26T10:05:12Z</time>
      </trkpt>
      <trkpt lat="48.93058" lon="2.0728">
        <ele>34.88</ele>
        <time>2021-01-26T10:05:25Z</time>
      </trkpt>
      <trkpt lat="48.93038" lon="2.07277">
        <ele>35.78</ele>
        <time>2021-01-26T10:05:37Z</time>
      </trkpt>
      <trkpt lat="48.9303" lon="2.07275">
        <ele>35.53</ele>
        <time>2021-01-26T10:05:41Z</time>
      </trkpt>
      <trkpt lat="48.93017" lon="2.07272">
        <ele>35.7</ele>
        <time>2021-01-26T10:05:51Z</time>
      </trkpt>
      <trkpt lat="48.93002" lon="2.07268">
        <ele>36.13</ele>
        <time>2021-01-26T10:06:01Z</time>
      </trkpt>
      <trkpt lat="48.92987" lon="2.07266">
        <ele>37.48</ele>
        <time>2021-01-26T10:06:13Z</time>
      </trkpt>
      <trkpt lat="48.92969" lon="2.07264">
        <ele>37.18</ele>
        <time>2021-01-26T10:06:25Z</time>
      </trkpt>
      <trkpt lat="48.92964" lon="2.07262">
        <ele>38.86</ele>
        <time>2021-01-26T10:06:28Z</time>
      </trkpt>
      <trkpt lat="48.92949" lon="2.0726">
        <ele>38.27</ele>
        <time>2021-01-26T10:06:38Z</time>
      </trkpt>
      <trkpt lat="48.92946" lon="2.07259">
        <ele>38.25</ele>
        <time>2021-01-26T10:06:39Z</time>
      </trkpt>
      <trkpt lat="48.92945" lon="2.07259">
        <ele>38.4</ele>
        <time>2021-01-26T10:06:40Z</time>
      </trkpt>
      <trkpt lat="48.92927" lon="2.07256">
        <ele>38.77</ele>
        <time>2021-01-26T10:06:52Z</time>
      </trkpt>
      <trkpt lat="48.92903" lon="2.07247">
        <ele>38.39</ele>
        <time>2021-01-26T10:07:06Z</time>
      </trkpt>
      <trkpt lat="48.9289" lon="2.07248">
        <ele>37.54</ele>
        <time>2021-01-26T10:07:17Z</time>
      </trkpt>
      <trkpt lat="48.92882" lon="2.07248">
        <ele>37.56</ele>
        <time>2021-01-26T10:07:24Z</time>
      </trkpt>
      <trkpt lat="48.92881" lon="2.07248">
        <ele>38.3</ele>
        <time>2021-01-26T10:07:25Z</time>
      </trkpt>
      <trkpt lat="48.92868" lon="2.07246">
        <ele>37.93</ele>
        <time>2021-01-26T10:07:33Z</time>
      </trkpt>
      <trkpt lat="48.92867" lon="2.07246">
        <ele>37.13</ele>
        <time>2021-01-26T10:07:34Z</time>
      </trkpt>
      <trkpt lat="48.92851" lon="2.07239">
        <ele>38.3</ele>
        <time>2021-01-26T10:07:45Z</time>
      </trkpt>
      <trkpt lat="48.92849" lon="2.07239">
        <ele>38.37</ele>
        <time>2021-01-26T10:07:46Z</time>
      </trkpt>
      <trkpt lat="48.92845" lon="2.07239">
        <ele>38.72</ele>
        <time>2021-01-26T10:07:48Z</time>
      </trkpt>
      <trkpt lat="48.92843" lon="2.07239">
        <ele>38.82</ele>
        <time>2021-01-26T10:08:02Z</time>
      </trkpt>
      <trkpt lat="48.92845" lon="2.07241">
        <ele>38.46</ele>
        <time>2021-01-26T10:08:24Z</time>
      </trkpt>
      <trkpt lat="48.92844" lon="2.07241">
        <ele>39.36</ele>
        <time>2021-01-26T10:08:50Z</time>
      </trkpt>
      <trkpt lat="48.92846" lon="2.07242">
        <ele>39</ele>
        <time>2021-01-26T10:09:23Z</time>
      </trkpt>
      <trkpt lat="48.92848" lon="2.07243">
        <ele>39.96</ele>
        <time>2021-01-26T10:10:03Z</time>
      </trkpt>
      <trkpt lat="48.92845" lon="2.07242">
        <ele>40.29</ele>
        <time>2021-01-26T10:10:38Z</time>
      </trkpt>
      <trkpt lat="48.92844" lon="2.07242">
        <ele>39.73</ele>
        <time>2021-01-26T10:11:12Z</time>
      </trkpt>
      <trkpt lat="48.92847" lon="2.0724">
        <ele>40.58</ele>
        <time>2021-01-26T10:11:40Z</time>
      </trkpt>
      <trkpt lat="48.92848" lon="2.07236">
        <ele>41.06</ele>
        <time>2021-01-26T10:12:12Z</time>
      </trkpt>
      <trkpt lat="48.92847" lon="2.07237">
        <ele>41.13</ele>
        <time>2021-01-26T10:12:29Z</time>
      </trkpt>
      <trkpt lat="48.92847" lon="2.07237">
        <ele>42.14</ele>
        <time>2021-01-26T10:12:31Z</time>
      </trkpt>
      <trkpt lat="48.92849" lon="2.07228">
        <ele>40.95</ele>
        <time>2021-01-26T10:12:46Z</time>
      </trkpt>
      <trkpt lat="48.9285" lon="2.07226">
        <ele>40.63</ele>
        <time>2021-01-26T10:12:47Z</time>
      </trkpt>
      <trkpt lat="48.9285" lon="2.07225">
        <ele>40.21</ele>
        <time>2021-01-26T10:12:48Z</time>
      </trkpt>
      <trkpt lat="48.92854" lon="2.07204">
        <ele>40.82</ele>
        <time>2021-01-26T10:13:02Z</time>
      </trkpt>
      <trkpt lat="48.92861" lon="2.0719">
        <ele>40.31</ele>
        <time>2021-01-26T10:13:11Z</time>
      </trkpt>
      <trkpt lat="48.92868" lon="2.07165">
        <ele>39.09</ele>
        <time>2021-01-26T10:13:25Z</time>
      </trkpt>
      <trkpt lat="48.9287" lon="2.07157">
        <ele>39.69</ele>
        <time>2021-01-26T10:13:29Z</time>
      </trkpt>
      <trkpt lat="48.92871" lon="2.07155">
        <ele>38.85</ele>
        <time>2021-01-26T10:13:30Z</time>
      </trkpt>
      <trkpt lat="48.92872" lon="2.07153">
        <ele>39.01</ele>
        <time>2021-01-26T10:13:31Z</time>
      </trkpt>
      <trkpt lat="48.92874" lon="2.07142">
        <ele>39.05</ele>
        <time>2021-01-26T10:13:36Z</time>
      </trkpt>
      <trkpt lat="48.92874" lon="2.0714">
        <ele>38.22</ele>
        <time>2021-01-26T10:13:37Z</time>
      </trkpt>
      <trkpt lat="48.92881" lon="2.07119">
        <ele>38.02</ele>
        <time>2021-01-26T10:13:48Z</time>
      </trkpt>
      <trkpt lat="48.92881" lon="2.07117">
        <ele>38.36</ele>
        <time>2021-01-26T10:13:49Z</time>
      </trkpt>
      <trkpt lat="48.92884" lon="2.07105">
        <ele>37.96</ele>
        <time>2021-01-26T10:13:55Z</time>
      </trkpt>
      <trkpt lat="48.92885" lon="2.07104">
        <ele>37.98</ele>
        <time>2021-01-26T10:13:56Z</time>
      </trkpt>
      <trkpt lat="48.92885" lon="2.07102">
        <ele>38.36</ele>
        <time>2021-01-26T10:13:57Z</time>
      </trkpt>
      <trkpt lat="48.92886" lon="2.071">
        <ele>38.36</ele>
        <time>2021-01-26T10:13:58Z</time>
      </trkpt>
      <trkpt lat="48.92893" lon="2.07077">
        <ele>37.89</ele>
        <time>2021-01-26T10:14:10Z</time>
      </trkpt>
      <trkpt lat="48.92894" lon="2.07076">
        <ele>37.63</ele>
        <time>2021-01-26T10:14:11Z</time>
      </trkpt>
      <trkpt lat="48.92896" lon="2.07074">
        <ele>37.76</ele>
        <time>2021-01-26T10:14:12Z</time>
      </trkpt>
      <trkpt lat="48.92897" lon="2.07074">
        <ele>37.16</ele>
        <time>2021-01-26T10:14:13Z</time>
      </trkpt>
      <trkpt lat="48.92899" lon="2.07071">
        <ele>37.17</ele>
        <time>2021-01-26T10:14:14Z</time>
      </trkpt>
      <trkpt lat="48.929" lon="2.0707">
        <ele>37.59</ele>
        <time>2021-01-26T10:14:15Z</time>
      </trkpt>
      <trkpt lat="48.92902" lon="2.07067">
        <ele>38.03</ele>
        <time>2021-01-26T10:14:18Z</time>
      </trkpt>
      <trkpt lat="48.92903" lon="2.07061">
        <ele>37.53</ele>
        <time>2021-01-26T10:14:21Z</time>
      </trkpt>
      <trkpt lat="48.92903" lon="2.07059">
        <ele>37.13</ele>
        <time>2021-01-26T10:14:22Z</time>
      </trkpt>
      <trkpt lat="48.92911" lon="2.07029">
        <ele>36.85</ele>
        <time>2021-01-26T10:14:34Z</time>
      </trkpt>
      <trkpt lat="48.9292" lon="2.07005">
        <ele>37.61</ele>
        <time>2021-01-26T10:14:46Z</time>
      </trkpt>
      <trkpt lat="48.92921" lon="2.07003">
        <ele>37.24</ele>
        <time>2021-01-26T10:14:47Z</time>
      </trkpt>
      <trkpt lat="48.92922" lon="2.07001">
        <ele>37.1</ele>
        <time>2021-01-26T10:14:48Z</time>
      </trkpt>
      <trkpt lat="48.92923" lon="2.06999">
        <ele>36.91</ele>
        <time>2021-01-26T10:14:49Z</time>
      </trkpt>
      <trkpt lat="48.92925" lon="2.06996">
        <ele>36.94</ele>
        <time>2021-01-26T10:14:51Z</time>
      </trkpt>
      <trkpt lat="48.9293" lon="2.06982">
        <ele>37.37</ele>
        <time>2021-01-26T10:14:58Z</time>
      </trkpt>
      <trkpt lat="48.92939" lon="2.06964">
        <ele>36.06</ele>
        <time>2021-01-26T10:15:11Z</time>
      </trkpt>
      <trkpt lat="48.92943" lon="2.06955">
        <ele>35.92</ele>
        <time>2021-01-26T10:15:16Z</time>
      </trkpt>
      <trkpt lat="48.92944" lon="2.06953">
        <ele>35.74</ele>
        <time>2021-01-26T10:15:17Z</time>
      </trkpt>
      <trkpt lat="48.92946" lon="2.06948">
        <ele>35.67</ele>
        <time>2021-01-26T10:15:20Z</time>
      </trkpt>
      <trkpt lat="48.92947" lon="2.06946">
        <ele>35.18</ele>
        <time>2021-01-26T10:15:21Z</time>
      </trkpt>
      <trkpt lat="48.92948" lon="2.06942">
        <ele>34.77</ele>
        <time>2021-01-26T10:15:23Z</time>
      </trkpt>
      <trkpt lat="48.9295" lon="2.06941">
        <ele>35.45</ele>
        <time>2021-01-26T10:15:24Z</time>
      </trkpt>
      <trkpt lat="48.9295" lon="2.06937">
        <ele>34.87</ele>
        <time>2021-01-26T10:15:25Z</time>
      </trkpt>
      <trkpt lat="48.92951" lon="2.06935">
        <ele>34.77</ele>
        <time>2021-01-26T10:15:26Z</time>
      </trkpt>
      <trkpt lat="48.92954" lon="2.06924">
        <ele>34.41</ele>
        <time>2021-01-26T10:15:31Z</time>
      </trkpt>
      <trkpt lat="48.92958" lon="2.06914">
        <ele>34.02</ele>
        <time>2021-01-26T10:15:37Z</time>
      </trkpt>
      <trkpt lat="48.9296" lon="2.06912">
        <ele>33.69</ele>
        <time>2021-01-26T10:15:39Z</time>
      </trkpt>
      <trkpt lat="48.92969" lon="2.06898">
        <ele>32.78</ele>
        <time>2021-01-26T10:15:52Z</time>
      </trkpt>
      <trkpt lat="48.9298" lon="2.06878">
        <ele>32</ele>
        <time>2021-01-26T10:16:04Z</time>
      </trkpt>
      <trkpt lat="48.92982" lon="2.0687">
        <ele>31.7</ele>
        <time>2021-01-26T10:16:07Z</time>
      </trkpt>
      <trkpt lat="48.92985" lon="2.06865">
        <ele>31.91</ele>
        <time>2021-01-26T10:16:10Z</time>
      </trkpt>
      <trkpt lat="48.92986" lon="2.06859">
        <ele>31.89</ele>
        <time>2021-01-26T10:16:12Z</time>
      </trkpt>
      <trkpt lat="48.92997" lon="2.06832">
        <ele>31.45</ele>
        <time>2021-01-26T10:16:28Z</time>
      </trkpt>
      <trkpt lat="48.93011" lon="2.06814">
        <ele>31.18</ele>
        <time>2021-01-26T10:16:40Z</time>
      </trkpt>
      <trkpt lat="48.9302" lon="2.06791">
        <ele>31.82</ele>
        <time>2021-01-26T10:16:53Z</time>
      </trkpt>
      <trkpt lat="48.93026" lon="2.06779">
        <ele>31.67</ele>
        <time>2021-01-26T10:17:00Z</time>
      </trkpt>
      <trkpt lat="48.93029" lon="2.06778">
        <ele>31.86</ele>
        <time>2021-01-26T10:17:01Z</time>
      </trkpt>
      <trkpt lat="48.93034" lon="2.06762">
        <ele>32.31</ele>
        <time>2021-01-26T10:17:08Z</time>
      </trkpt>
      <trkpt lat="48.93035" lon="2.0676">
        <ele>32.3</ele>
        <time>2021-01-26T10:17:09Z</time>
      </trkpt>
      <trkpt lat="48.93037" lon="2.06757">
        <ele>32.75</ele>
        <time>2021-01-26T10:17:11Z</time>
      </trkpt>
      <trkpt lat="48.93039" lon="2.06756">
        <ele>31.95</ele>
        <time>2021-01-26T10:17:12Z</time>
      </trkpt>
      <trkpt lat="48.93043" lon="2.0675">
        <ele>32.86</ele>
        <time>2021-01-26T10:17:16Z</time>
      </trkpt>
      <trkpt lat="48.93048" lon="2.06734">
        <ele>32.7</ele>
        <time>2021-01-26T10:17:30Z</time>
      </trkpt>
      <trkpt lat="48.93052" lon="2.06735">
        <ele>33.25</ele>
        <time>2021-01-26T10:17:56Z</time>
      </trkpt>
      <trkpt lat="48.93049" lon="2.06738">
        <ele>32.55</ele>
        <time>2021-01-26T10:18:20Z</time>
      </trkpt>
      <trkpt lat="48.9304" lon="2.06738">
        <ele>32.6</ele>
        <time>2021-01-26T10:18:45Z</time>
      </trkpt>
      <trkpt lat="48.93039" lon="2.06739">
        <ele>32.65</ele>
        <time>2021-01-26T10:18:46Z</time>
      </trkpt>
      <trkpt lat="48.93037" lon="2.06739">
        <ele>32.37</ele>
        <time>2021-01-26T10:18:47Z</time>
      </trkpt>
      <trkpt lat="48.93036" lon="2.0674">
        <ele>32.5</ele>
        <time>2021-01-26T10:18:48Z</time>
      </trkpt>
      <trkpt lat="48.93035" lon="2.06741">
        <ele>32.23</ele>
        <time>2021-01-26T10:18:49Z</time>
      </trkpt>
      <trkpt lat="48.93017" lon="2.06748">
        <ele>31.8</ele>
        <time>2021-01-26T10:19:04Z</time>
      </trkpt>
      <trkpt lat="48.93014" lon="2.06749">
        <ele>31.25</ele>
        <time>2021-01-26T10:19:06Z</time>
      </trkpt>
      <trkpt lat="48.93007" lon="2.06754">
        <ele>31.74</ele>
        <time>2021-01-26T10:19:11Z</time>
      </trkpt>
      <trkpt lat="48.93005" lon="2.06755">
        <ele>31.77</ele>
        <time>2021-01-26T10:19:12Z</time>
      </trkpt>
      <trkpt lat="48.93004" lon="2.06756">
        <ele>31.66</ele>
        <time>2021-01-26T10:19:13Z</time>
      </trkpt>
      <trkpt lat="48.93002" lon="2.06757">
        <ele>31.39</ele>
        <time>2021-01-26T10:19:14Z</time>
      </trkpt>
      <trkpt lat="48.93001" lon="2.06757">
        <ele>30.9</ele>
        <time>2021-01-26T10:19:15Z</time>
      </trkpt>
      <trkpt lat="48.92991" lon="2.06764">
        <ele>30.91</ele>
        <time>2021-01-26T10:19:24Z</time>
      </trkpt>
      <trkpt lat="48.92983" lon="2.06765">
        <ele>31.28</ele>
        <time>2021-01-26T10:19:30Z</time>
      </trkpt>
      <trkpt lat="48.92967" lon="2.06775">
        <ele>30.62</ele>
        <time>2021-01-26T10:19:43Z</time>
      </trkpt>
      <trkpt lat="48.92963" lon="2.06778">
        <ele>30.59</ele>
        <time>2021-01-26T10:19:45Z</time>
      </trkpt>
      <trkpt lat="48.92961" lon="2.06779">
        <ele>30.03</ele>
        <time>2021-01-26T10:19:46Z</time>
      </trkpt>
      <trkpt lat="48.92948" lon="2.06784">
        <ele>30.48</ele>
        <time>2021-01-26T10:19:54Z</time>
      </trkpt>
      <trkpt lat="48.92943" lon="2.06787">
        <ele>30.82</ele>
        <time>2021-01-26T10:19:57Z</time>
      </trkpt>
      <trkpt lat="48.92942" lon="2.06787">
        <ele>30.66</ele>
        <time>2021-01-26T10:19:58Z</time>
      </trkpt>
      <trkpt lat="48.9293" lon="2.06795">
        <ele>31.25</ele>
        <time>2021-01-26T10:20:08Z</time>
      </trkpt>
      <trkpt lat="48.92928" lon="2.06795">
        <ele>30.96</ele>
        <time>2021-01-26T10:20:09Z</time>
      </trkpt>
      <trkpt lat="48.92912" lon="2.06805">
        <ele>31.64</ele>
        <time>2021-01-26T10:20:22Z</time>
      </trkpt>
      <trkpt lat="48.92897" lon="2.06813">
        <ele>32.88</ele>
        <time>2021-01-26T10:20:35Z</time>
      </trkpt>
      <trkpt lat="48.9289" lon="2.06818">
        <ele>33.27</ele>
        <time>2021-01-26T10:20:40Z</time>
      </trkpt>
      <trkpt lat="48.92887" lon="2.0682">
        <ele>33.49</ele>
        <time>2021-01-26T10:20:42Z</time>
      </trkpt>
      <trkpt lat="48.92884" lon="2.06822">
        <ele>33.85</ele>
        <time>2021-01-26T10:20:44Z</time>
      </trkpt>
      <trkpt lat="48.92861" lon="2.06834">
        <ele>34.78</ele>
        <time>2021-01-26T10:21:02Z</time>
      </trkpt>
      <trkpt lat="48.92855" lon="2.06839">
        <ele>34.72</ele>
        <time>2021-01-26T10:21:09Z</time>
      </trkpt>
      <trkpt lat="48.92853" lon="2.06839">
        <ele>34.87</ele>
        <time>2021-01-26T10:21:11Z</time>
      </trkpt>
      <trkpt lat="48.92845" lon="2.06844">
        <ele>35.13</ele>
        <time>2021-01-26T10:21:19Z</time>
      </trkpt>
      <trkpt lat="48.92844" lon="2.06844">
        <ele>34.95</ele>
        <time>2021-01-26T10:21:20Z</time>
      </trkpt>
      <trkpt lat="48.92841" lon="2.06845">
        <ele>35.03</ele>
        <time>2021-01-26T10:21:22Z</time>
      </trkpt>
      <trkpt lat="48.92839" lon="2.06846">
        <ele>35.25</ele>
        <time>2021-01-26T10:21:23Z</time>
      </trkpt>
      <trkpt lat="48.92837" lon="2.06846">
        <ele>35.68</ele>
        <time>2021-01-26T10:21:25Z</time>
      </trkpt>
      <trkpt lat="48.92836" lon="2.06847">
        <ele>35.96</ele>
        <time>2021-01-26T10:21:26Z</time>
      </trkpt>
      <trkpt lat="48.92835" lon="2.06848">
        <ele>35.35</ele>
        <time>2021-01-26T10:21:27Z</time>
      </trkpt>
      <trkpt lat="48.92825" lon="2.06856">
        <ele>36.37</ele>
        <time>2021-01-26T10:21:37Z</time>
      </trkpt>
      <trkpt lat="48.92817" lon="2.06862">
        <ele>37.19</ele>
        <time>2021-01-26T10:21:43Z</time>
      </trkpt>
      <trkpt lat="48.92803" lon="2.06868">
        <ele>37.19</ele>
        <time>2021-01-26T10:21:55Z</time>
      </trkpt>
      <trkpt lat="48.92782" lon="2.06882">
        <ele>38.15</ele>
        <time>2021-01-26T10:22:12Z</time>
      </trkpt>
      <trkpt lat="48.9278" lon="2.06884">
        <ele>37.54</ele>
        <time>2021-01-26T10:22:13Z</time>
      </trkpt>
      <trkpt lat="48.92778" lon="2.06885">
        <ele>38.08</ele>
        <time>2021-01-26T10:22:14Z</time>
      </trkpt>
      <trkpt lat="48.92772" lon="2.06888">
        <ele>38.66</ele>
        <time>2021-01-26T10:22:18Z</time>
      </trkpt>
      <trkpt lat="48.9276" lon="2.06897">
        <ele>39.06</ele>
        <time>2021-01-26T10:22:28Z</time>
      </trkpt>
      <trkpt lat="48.92755" lon="2.069">
        <ele>39.41</ele>
        <time>2021-01-26T10:22:32Z</time>
      </trkpt>
      <trkpt lat="48.92753" lon="2.06901">
        <ele>39.59</ele>
        <time>2021-01-26T10:22:33Z</time>
      </trkpt>
      <trkpt lat="48.92734" lon="2.06909">
        <ele>40.62</ele>
        <time>2021-01-26T10:22:46Z</time>
      </trkpt>
      <trkpt lat="48.92715" lon="2.0692">
        <ele>40.59</ele>
        <time>2021-01-26T10:22:59Z</time>
      </trkpt>
      <trkpt lat="48.92697" lon="2.06926">
        <ele>41.24</ele>
        <time>2021-01-26T10:23:14Z</time>
      </trkpt>
      <trkpt lat="48.92694" lon="2.06926">
        <ele>41.32</ele>
        <time>2021-01-26T10:23:17Z</time>
      </trkpt>
      <trkpt lat="48.92696" lon="2.06928">
        <ele>41.35</ele>
        <time>2021-01-26T10:23:33Z</time>
      </trkpt>
      <trkpt lat="48.92697" lon="2.06935">
        <ele>41.38</ele>
        <time>2021-01-26T10:23:53Z</time>
      </trkpt>
      <trkpt lat="48.92695" lon="2.06936">
        <ele>42.6</ele>
        <time>2021-01-26T10:24:06Z</time>
      </trkpt>
      <trkpt lat="48.92697" lon="2.06942">
        <ele>42.02</ele>
        <time>2021-01-26T10:24:30Z</time>
      </trkpt>
      <trkpt lat="48.92701" lon="2.06952">
        <ele>41.95</ele>
        <time>2021-01-26T10:24:40Z</time>
      </trkpt>
      <trkpt lat="48.92702" lon="2.06954">
        <ele>42.3</ele>
        <time>2021-01-26T10:24:41Z</time>
      </trkpt>
      <trkpt lat="48.92707" lon="2.06964">
        <ele>42.32</ele>
        <time>2021-01-26T10:24:47Z</time>
      </trkpt>
      <trkpt lat="48.9271" lon="2.06971">
        <ele>42.42</ele>
        <time>2021-01-26T10:24:51Z</time>
      </trkpt>
      <trkpt lat="48.9272" lon="2.06988">
        <ele>42.48</ele>
        <time>2021-01-26T10:25:02Z</time>
      </trkpt>
      <trkpt lat="48.92722" lon="2.06992">
        <ele>42.36</ele>
        <time>2021-01-26T10:25:04Z</time>
      </trkpt>
      <trkpt lat="48.92722" lon="2.06994">
        <ele>42.88</ele>
        <time>2021-01-26T10:25:05Z</time>
      </trkpt>
      <trkpt lat="48.92723" lon="2.06996">
        <ele>42.41</ele>
        <time>2021-01-26T10:25:06Z</time>
      </trkpt>
      <trkpt lat="48.92724" lon="2.06998">
        <ele>42.38</ele>
        <time>2021-01-26T10:25:07Z</time>
      </trkpt>
      <trkpt lat="48.92728" lon="2.07015">
        <ele>41.9</ele>
        <time>2021-01-26T10:25:17Z</time>
      </trkpt>
      <trkpt lat="48.92729" lon="2.0702">
        <ele>42.18</ele>
        <time>2021-01-26T10:25:19Z</time>
      </trkpt>
      <trkpt lat="48.9273" lon="2.07022">
        <ele>41.71</ele>
        <time>2021-01-26T10:25:20Z</time>
      </trkpt>
      <trkpt lat="48.92731" lon="2.07024">
        <ele>42.1</ele>
        <time>2021-01-26T10:25:21Z</time>
      </trkpt>
      <trkpt lat="48.92738" lon="2.07038">
        <ele>41.14</ele>
        <time>2021-01-26T10:25:28Z</time>
      </trkpt>
      <trkpt lat="48.92739" lon="2.07039">
        <ele>41.34</ele>
        <time>2021-01-26T10:25:29Z</time>
      </trkpt>
      <trkpt lat="48.92742" lon="2.07045">
        <ele>41.13</ele>
        <time>2021-01-26T10:25:32Z</time>
      </trkpt>
      <trkpt lat="48.92744" lon="2.07049">
        <ele>40.88</ele>
        <time>2021-01-26T10:25:34Z</time>
      </trkpt>
      <trkpt lat="48.92745" lon="2.07051">
        <ele>40.91</ele>
        <time>2021-01-26T10:25:35Z</time>
      </trkpt>
      <trkpt lat="48.92746" lon="2.07054">
        <ele>40.32</ele>
        <time>2021-01-26T10:25:36Z</time>
      </trkpt>
      <trkpt lat="48.92747" lon="2.07056">
        <ele>40.73</ele>
        <time>2021-01-26T10:25:37Z</time>
      </trkpt>
      <trkpt lat="48.92749" lon="2.07059">
        <ele>40.57</ele>
        <time>2021-01-26T10:25:38Z</time>
      </trkpt>
      <trkpt lat="48.92755" lon="2.0708">
        <ele>39.53</ele>
        <time>2021-01-26T10:25:48Z</time>
      </trkpt>
      <trkpt lat="48.92757" lon="2.07086">
        <ele>39.65</ele>
        <time>2021-01-26T10:25:51Z</time>
      </trkpt>
      <trkpt lat="48.92758" lon="2.07087">
        <ele>39.44</ele>
        <time>2021-01-26T10:25:52Z</time>
      </trkpt>
      <trkpt lat="48.92759" lon="2.07089">
        <ele>39.74</ele>
        <time>2021-01-26T10:25:53Z</time>
      </trkpt>
      <trkpt lat="48.92759" lon="2.07091">
        <ele>39.03</ele>
        <time>2021-01-26T10:25:54Z</time>
      </trkpt>
      <trkpt lat="48.9276" lon="2.07093">
        <ele>39.36</ele>
        <time>2021-01-26T10:25:55Z</time>
      </trkpt>
      <trkpt lat="48.92761" lon="2.07095">
        <ele>39.54</ele>
        <time>2021-01-26T10:25:56Z</time>
      </trkpt>
      <trkpt lat="48.92775" lon="2.07119">
        <ele>40</ele>
        <time>2021-01-26T10:26:09Z</time>
      </trkpt>
      <trkpt lat="48.92781" lon="2.07129">
        <ele>40.41</ele>
        <time>2021-01-26T10:26:14Z</time>
      </trkpt>
      <trkpt lat="48.92782" lon="2.07131">
        <ele>40.44</ele>
        <time>2021-01-26T10:26:15Z</time>
      </trkpt>
      <trkpt lat="48.92786" lon="2.07146">
        <ele>41.08</ele>
        <time>2021-01-26T10:26:24Z</time>
      </trkpt>
      <trkpt lat="48.92795" lon="2.07162">
        <ele>41.72</ele>
        <time>2021-01-26T10:26:32Z</time>
      </trkpt>
      <trkpt lat="48.92804" lon="2.07183">
        <ele>41.57</ele>
        <time>2021-01-26T10:26:44Z</time>
      </trkpt>
      <trkpt lat="48.92807" lon="2.07197">
        <ele>41.61</ele>
        <time>2021-01-26T10:26:50Z</time>
      </trkpt>
      <trkpt lat="48.92808" lon="2.07202">
        <ele>41.48</ele>
        <time>2021-01-26T10:26:52Z</time>
      </trkpt>
      <trkpt lat="48.92808" lon="2.07204">
        <ele>41.75</ele>
        <time>2021-01-26T10:26:53Z</time>
      </trkpt>
      <trkpt lat="48.92812" lon="2.07212">
        <ele>41.36</ele>
        <time>2021-01-26T10:26:58Z</time>
      </trkpt>
      <trkpt lat="48.92817" lon="2.07221">
        <ele>42.05</ele>
        <time>2021-01-26T10:27:05Z</time>
      </trkpt>
      <trkpt lat="48.92828" lon="2.07236">
        <ele>41.32</ele>
        <time>2021-01-26T10:27:13Z</time>
      </trkpt>
      <trkpt lat="48.92834" lon="2.07259">
        <ele>42.15</ele>
        <time>2021-01-26T10:27:27Z</time>
      </trkpt>
      <trkpt lat="48.92836" lon="2.07264">
        <ele>42.37</ele>
        <time>2021-01-26T10:27:43Z</time>
      </trkpt>
      <trkpt lat="48.92838" lon="2.0726">
        <ele>42.5</ele>
        <time>2021-01-26T10:28:11Z</time>
      </trkpt>
      <trkpt lat="48.92838" lon="2.07259">
        <ele>42.26</ele>
        <time>2021-01-26T10:28:30Z</time>
      </trkpt>
      <trkpt lat="48.92844" lon="2.07263">
        <ele>42.3</ele>
        <time>2021-01-26T10:28:56Z</time>
      </trkpt>
      <trkpt lat="48.92842" lon="2.07262">
        <ele>42.71</ele>
        <time>2021-01-26T10:29:16Z</time>
      </trkpt>
      <trkpt lat="48.92844" lon="2.07275">
        <ele>42.41</ele>
        <time>2021-01-26T10:29:30Z</time>
      </trkpt>
      <trkpt lat="48.92845" lon="2.07278">
        <ele>42.14</ele>
        <time>2021-01-26T10:29:31Z</time>
      </trkpt>
      <trkpt lat="48.92845" lon="2.0728">
        <ele>42.43</ele>
        <time>2021-01-26T10:29:32Z</time>
      </trkpt>
      <trkpt lat="48.92846" lon="2.07282">
        <ele>42.63</ele>
        <time>2021-01-26T10:29:33Z</time>
      </trkpt>
      <trkpt lat="48.92857" lon="2.07312">
        <ele>44.67</ele>
        <time>2021-01-26T10:29:52Z</time>
      </trkpt>
      <trkpt lat="48.92863" lon="2.07327">
        <ele>45.28</ele>
        <time>2021-01-26T10:30:02Z</time>
      </trkpt>
      <trkpt lat="48.92865" lon="2.0733">
        <ele>45.3</ele>
        <time>2021-01-26T10:30:03Z</time>
      </trkpt>
      <trkpt lat="48.92866" lon="2.07332">
        <ele>45.3</ele>
        <time>2021-01-26T10:30:04Z</time>
      </trkpt>
      <trkpt lat="48.92879" lon="2.07351">
        <ele>46.45</ele>
        <time>2021-01-26T10:30:18Z</time>
      </trkpt>
      <trkpt lat="48.92882" lon="2.07356">
        <ele>46.27</ele>
        <time>2021-01-26T10:30:21Z</time>
      </trkpt>
      <trkpt lat="48.92882" lon="2.07359">
        <ele>46.34</ele>
        <time>2021-01-26T10:30:22Z</time>
      </trkpt>
      <trkpt lat="48.92883" lon="2.07361">
        <ele>46.45</ele>
        <time>2021-01-26T10:30:23Z</time>
      </trkpt>
      <trkpt lat="48.92884" lon="2.07364">
        <ele>46.71</ele>
        <time>2021-01-26T10:30:24Z</time>
      </trkpt>
      <trkpt lat="48.92885" lon="2.07367">
        <ele>46.23</ele>
        <time>2021-01-26T10:30:25Z</time>
      </trkpt>
      <trkpt lat="48.92893" lon="2.0739">
        <ele>46.94</ele>
        <time>2021-01-26T10:30:38Z</time>
      </trkpt>
      <trkpt lat="48.92904" lon="2.07412">
        <ele>47.34</ele>
        <time>2021-01-26T10:30:52Z</time>
      </trkpt>
      <trkpt lat="48.92918" lon="2.07441">
        <ele>46.57</ele>
        <time>2021-01-26T10:31:08Z</time>
      </trkpt>
      <trkpt lat="48.9293" lon="2.0747">
        <ele>46.72</ele>
        <time>2021-01-26T10:31:22Z</time>
      </trkpt>
      <trkpt lat="48.92931" lon="2.07471">
        <ele>46.95</ele>
        <time>2021-01-26T10:31:23Z</time>
      </trkpt>
      <trkpt lat="48.92943" lon="2.07491">
        <ele>46.93</ele>
        <time>2021-01-26T10:31:36Z</time>
      </trkpt>
      <trkpt lat="48.92953" lon="2.07505">
        <ele>46.83</ele>
        <time>2021-01-26T10:31:46Z</time>
      </trkpt>
      <trkpt lat="48.92955" lon="2.07509">
        <ele>46.6</ele>
        <time>2021-01-26T10:31:49Z</time>
      </trkpt>
      <trkpt lat="48.92964" lon="2.0753">
        <ele>46.6</ele>
        <time>2021-01-26T10:32:00Z</time>
      </trkpt>
      <trkpt lat="48.92965" lon="2.07532">
        <ele>46.3</ele>
        <time>2021-01-26T10:32:01Z</time>
      </trkpt>
      <trkpt lat="48.92967" lon="2.07533">
        <ele>46.74</ele>
        <time>2021-01-26T10:32:02Z</time>
      </trkpt>
      <trkpt lat="48.92968" lon="2.07535">
        <ele>46.68</ele>
        <time>2021-01-26T10:32:03Z</time>
      </trkpt>
      <trkpt lat="48.92969" lon="2.07537">
        <ele>47.32</ele>
        <time>2021-01-26T10:32:04Z</time>
      </trkpt>
      <trkpt lat="48.92972" lon="2.07544">
        <ele>46.47</ele>
        <time>2021-01-26T10:32:07Z</time>
      </trkpt>
      <trkpt lat="48.92973" lon="2.07546">
        <ele>46.41</ele>
        <time>2021-01-26T10:32:08Z</time>
      </trkpt>
      <trkpt lat="48.92983" lon="2.07569">
        <ele>45.78</ele>
        <time>2021-01-26T10:32:21Z</time>
      </trkpt>
      <trkpt lat="48.92985" lon="2.07571">
        <ele>45.94</ele>
        <time>2021-01-26T10:32:22Z</time>
      </trkpt>
      <trkpt lat="48.92986" lon="2.07573">
        <ele>46.15</ele>
        <time>2021-01-26T10:32:23Z</time>
      </trkpt>
      <trkpt lat="48.92988" lon="2.07574">
        <ele>46.12</ele>
        <time>2021-01-26T10:32:24Z</time>
      </trkpt>
      <trkpt lat="48.92988" lon="2.07576">
        <ele>46.48</ele>
        <time>2021-01-26T10:32:25Z</time>
      </trkpt>
      <trkpt lat="48.92989" lon="2.07578">
        <ele>46.32</ele>
        <time>2021-01-26T10:32:26Z</time>
      </trkpt>
      <trkpt lat="48.9299" lon="2.0758">
        <ele>46.2</ele>
        <time>2021-01-26T10:32:27Z</time>
      </trkpt>
      <trkpt lat="48.92991" lon="2.07582">
        <ele>46.05</ele>
        <time>2021-01-26T10:32:28Z</time>
      </trkpt>
      <trkpt lat="48.92991" lon="2.07584">
        <ele>46.09</ele>
        <time>2021-01-26T10:32:29Z</time>
      </trkpt>
      <trkpt lat="48.92996" lon="2.07594">
        <ele>46.38</ele>
        <time>2021-01-26T10:32:34Z</time>
      </trkpt>
      <trkpt lat="48.92999" lon="2.07604">
        <ele>46.35</ele>
        <time>2021-01-26T10:32:40Z</time>
      </trkpt>
      <trkpt lat="48.93" lon="2.07608">
        <ele>46.24</ele>
        <time>2021-01-26T10:32:41Z</time>
      </trkpt>
      <trkpt lat="48.93" lon="2.07612">
        <ele>46.26</ele>
        <time>2021-01-26T10:32:43Z</time>
      </trkpt>
      <trkpt lat="48.93017" lon="2.07649">
        <ele>46.01</ele>
        <time>2021-01-26T10:33:04Z</time>
      </trkpt>
      <trkpt lat="48.93024" lon="2.07665">
        <ele>45.36</ele>
        <time>2021-01-26T10:33:12Z</time>
      </trkpt>
      <trkpt lat="48.93029" lon="2.07684">
        <ele>45.42</ele>
        <time>2021-01-26T10:33:25Z</time>
      </trkpt>
      <trkpt lat="48.93032" lon="2.07688">
        <ele>45.05</ele>
        <time>2021-01-26T10:33:27Z</time>
      </trkpt>
      <trkpt lat="48.93039" lon="2.07704">
        <ele>44.19</ele>
        <time>2021-01-26T10:33:35Z</time>
      </trkpt>
      <trkpt lat="48.93047" lon="2.07722">
        <ele>44.29</ele>
        <time>2021-01-26T10:33:43Z</time>
      </trkpt>
      <trkpt lat="48.93054" lon="2.07742">
        <ele>44.45</ele>
        <time>2021-01-26T10:33:56Z</time>
      </trkpt>
      <trkpt lat="48.93052" lon="2.07761">
        <ele>44.4</ele>
        <time>2021-01-26T10:34:07Z</time>
      </trkpt>
      <trkpt lat="48.93041" lon="2.07796">
        <ele>44.71</ele>
        <time>2021-01-26T10:34:26Z</time>
      </trkpt>
      <trkpt lat="48.93042" lon="2.0781">
        <ele>44.6</ele>
        <time>2021-01-26T10:34:38Z</time>
      </trkpt>
      <trkpt lat="48.93032" lon="2.07817">
        <ele>44.78</ele>
        <time>2021-01-26T10:35:05Z</time>
      </trkpt>
      <trkpt lat="48.93025" lon="2.0783">
        <ele>45.15</ele>
        <time>2021-01-26T10:35:23Z</time>
      </trkpt>
      <trkpt lat="48.93023" lon="2.07832">
        <ele>45.06</ele>
        <time>2021-01-26T10:35:25Z</time>
      </trkpt>
      <trkpt lat="48.93015" lon="2.07847">
        <ele>45.64</ele>
        <time>2021-01-26T10:35:37Z</time>
      </trkpt>
      <trkpt lat="48.93008" lon="2.07857">
        <ele>45.05</ele>
        <time>2021-01-26T10:35:44Z</time>
      </trkpt>
      <trkpt lat="48.92993" lon="2.07872">
        <ele>45.18</ele>
        <time>2021-01-26T10:35:57Z</time>
      </trkpt>
      <trkpt lat="48.92985" lon="2.07884">
        <ele>44.93</ele>
        <time>2021-01-26T10:36:05Z</time>
      </trkpt>
      <trkpt lat="48.92971" lon="2.0791">
        <ele>45.01</ele>
        <time>2021-01-26T10:36:22Z</time>
      </trkpt>
      <trkpt lat="48.92961" lon="2.07919">
        <ele>45.64</ele>
        <time>2021-01-26T10:36:30Z</time>
      </trkpt>
      <trkpt lat="48.92956" lon="2.07924">
        <ele>45.55</ele>
        <time>2021-01-26T10:36:34Z</time>
      </trkpt>
      <trkpt lat="48.92951" lon="2.07935">
        <ele>45.23</ele>
        <time>2021-01-26T10:36:41Z</time>
      </trkpt>
      <trkpt lat="48.92943" lon="2.07947">
        <ele>45.24</ele>
        <time>2021-01-26T10:36:48Z</time>
      </trkpt>
      <trkpt lat="48.92938" lon="2.07954">
        <ele>45.51</ele>
        <time>2021-01-26T10:36:52Z</time>
      </trkpt>
      <trkpt lat="48.92927" lon="2.07969">
        <ele>45.85</ele>
        <time>2021-01-26T10:37:05Z</time>
      </trkpt>
      <trkpt lat="48.92915" lon="2.07987">
        <ele>45.98</ele>
        <time>2021-01-26T10:37:21Z</time>
      </trkpt>
      <trkpt lat="48.9291" lon="2.07996">
        <ele>46.2</ele>
        <time>2021-01-26T10:37:43Z</time>
      </trkpt>
      <trkpt lat="48.92906" lon="2.08">
        <ele>56.68</ele>
        <time>2021-01-26T10:49:47Z</time>
      </trkpt>
      <trkpt lat="48.92906" lon="2.08001">
        <ele>55.7</ele>
        <time>2021-01-26T10:50:12Z</time>
      </trkpt>
      <trkpt lat="48.92905" lon="2.08004">
        <ele>56.49</ele>
        <time>2021-01-26T10:50:30Z</time>
      </trkpt>
      <trkpt lat="48.92904" lon="2.08021">
        <ele>56.18</ele>
        <time>2021-01-26T10:50:44Z</time>
      </trkpt>
    </trkseg>
  </trk>
</gpx>